COOLWX HOME

EXTREME HOME

OTHER COOLWX PAGES
    Coolwx Hit Images
    Extreme Weather
    Global Forecasts
    Hourly Model Forecasts
    Mesoscale Analysis
    Obs. Weather Database
    Offshore Weather Data
    Precipitation Type
    Record Breakers
    U.S. Weather Statistics


EXTREME WX CATEGORIES
   CITIES & VALUES:
       Temperature
       Dewpoint
       Heat Index
       Wind
       Wind Chill
       Pressure
       Pressure Change
       Precip Type/Intensity
       Precip Amount
       Thunderstorm
       Blizzard
       Visibility
       Astronomical
       Other
       Multiple
       Unknown
   CITIES & FULL REPORTS:
       Temperature
       Dewpoint
       Heat Index
       Wind
       Wind Chill
       Pressure
       Pressure Change
       Precip Type/Intensity
       Precip Amount
       Thunderstorm
       Blizzard
       Visibility
       Astronomical
       Other
       Multiple
   USA & WORLD PLOTS:
       Temperature
       Dewpoint
       Wind
       Wind Chill & Heat Index
       Pressure
       Pressure Change
       Precip Type/Intensity
       Precip Amount
       Thunderstorm
       Blizzard
       Visibility
       Astronomical
       Other
       Unknown
   REPEAT OFFENDERS:
       Today
       Yesterday
       This month
       This year
       Since 2007
   RSS:
       Feed
   ARCHIVE:
       2024072314
       2024072312
       2024072309
       2024072306
       2024072303
       2024072300
       2024072221
       2024072218
       2024072215
       2024072212
       2024072209
       2024072206
       2024072203
       2024072200
       2024072121
       2024072118
       2024072115
       2024072112
       2024072109
       2024072106
       2024072103
       2024072100
       2024072021
       2024072018

CONTACT
       Bob Hart
       (rhart at fsu.edu)

Extreme & Weird Weather of the World - Archive for 2024062121
Currently using 36651 observations from 5256 unique global stations over the past 3 hours.
Last Updated: Fri Jun 21 21:46:37 UTC 2024



0 stations reporting temperature -55°C or colder

0 stations reporting temperature -50°C to -54°C

1 station reporting temperature -45°C to -49°C

0 stations reporting temperature -40°C to -44°C

0 stations reporting temperature 55°C or warmer

0 stations reporting temperature 50°C to 54°C

5 stations reporting temperature 45°C to 49°C

61 stations reporting temperature 40°C to 44°C


9 stations reporting dewpoint 30°C or greater

28 stations reporting dewpoint 28-29°C

191 stations reporting dewpoint 26-27°C


1 station reporting wind gusts 70kt or stronger

1 station reporting wind gusts 60-69kt

3 stations reporting wind gusts 50-59kt

20 stations reporting wind gusts 40-49kt


1 station reporting (sustained) wind chill of -55°C or colder

0 stations reporting (sustained) wind chill of -50°C to -54°C

0 stations reporting (sustained) wind chill of -45°C to -49°C

0 stations reporting (sustained) wind chill of -40°C to -44°C


2 stations reporting heat index of 55°C or hotter

9 stations reporting heat index of 50°C to 54°C

19 stations reporting heat index of 45°C to 49°C

134 stations reporting heat index of 40°C to 44°C


0 stations reporting sea level pressure < 950mb

0 stations reporting sea level pressure 950mb - 959mb

0 stations reporting sea level pressure 960mb - 969mb

2 stations reporting sea level pressure 970mb - 979mb

  • PACX: UNKNOWN, [976.8mb, 28.84in]    
    PACX 212056Z AUTO 29004KT 10SM FEW060 20/05 A2995 RMK AO2 SLP768 T02000050 58013
    PACX 211956Z AUTO 32004KT 10SM CLR 19/08 A2996 RMK AO2 SLP773 T01890078
    PACX 211856Z AUTO 02008KT 10SM CLR 18/09 A2998 RMK AO2 SLP777 T01780094
    PACX 211756Z AUTO 02008KT 10SM CLR 16/10 A2999 RMK AO2 SLP781 60000 T01610100 10161 20122 58003
  • PFTO: UNKNOWN, [974.3mb, 28.76in]    
    PFTO 212056Z AUTO 29008KT 250V320 10SM FEW034 18/09 A2982 RMK AO2 LTG DSNT NE AND E SLP743 T01830094 58014 $
    PFTO 211956Z AUTO 30006KT 10SM FEW023 BKN042 16/09 A2984 RMK AO2 SLP749 T01610094 $
    PFTO 211856Z AUTO VRB03KT 10SM FEW012 15/12 A2985 RMK AO2 SLP753 T01500117 $
    PFTO 211756Z AUTO 30003KT 10SM BKN005 12/11 A2986 RMK AO2 SLP758 T01220106 10128 20078 58006 $
1 station reporting sea level pressure 980mb - 989mb

  • NZCM: Williams Field, Antarctica [985.7mb, 29.10in]    
    NZCM 212055Z AUTO 04011KT 9999 CLR M24/M29 A2909 RMK AO2 SLP857 T12371286 50000 $
    NZCM 211955Z AUTO 04010KT 9999 CLR M25/M30 A2909 RMK AO2 SLP858 T12461296 $
    NZCM 211855Z AUTO 04010KT 9999 CLR M25/M30 A2910 RMK AO2 SLP862 T12481302 $
    NZCM 211755Z AUTO 02014G18KT 330V180 9999 OVC055 M24/M31 A2909 RMK AO2 SLP859 T12441306 11211 21250 57005 $
0 stations reporting sea level pressure > 1055mb

0 stations reporting sea level pressure 1050-1054mb

0 stations reporting sea level pressure 1045-1049mb

0 stations reporting sea level pressure 1040-1044mb

5 stations reporting sea level pressure 1035-1039mb

  • FDMY: Mayiwane, Swaziland [1037mb, 30.62in]    
    FDMY 212000Z AUTO 36003KT //// // ////// 18/16 Q1037
    FDMY 211900Z AUTO 36002KT //// // ////// 17/14 Q1037
  • SLLP: La Paz / Alto, Bolivia [1039mb, 30.68in]    
    SLLP 212100Z 30011KT 9999 FEW017 BKN070 11/M03 Q1037
    SLLP 212000Z 30009G19KT 9999 SCT017 BKN070 12/M04 Q1037
    SLLP 211900Z 26009G19KT 9999 SCT017 SCT070 13/M04 Q1038
    SLLP 211800Z 28006KT 9999 SCT017 SCT070 11/M05 Q1039
  • SLPO: Potosi, Bolivia [1039mb, 30.68in]    
    SLPO 212000Z 24010KT 9999 FEW070 13/M08 Q1039
    SLPO 211900Z 24010KT 9999 FEW070 14/M06 Q1039
  • SPHY: Andahuayla, Peru [1036mb, 30.59in]    
    SPHY 211900Z 04003KT 9999 SCT012 BKN060 14/11 Q1035 RMK BIRD HAZARD RWY03/21 PP000
    SPHY 211800Z 03003KT 9999 SCT012 BKN060 14/10 Q1036 RMK BIRD HAZARD RWY03/21 PP000
  • SPJL: Juliaca, Peru [1037mb, 30.62in]    
    SPJL 212100Z VRB07KT 9999 VCSH SCT020 BKN100 12/M03 Q1035 RMK SH NW BIRD HAZARD RWY 12/30 PP000
    SPJL 212000Z 29006KT 230V340 9999 VCSH SCT020 SCT100 13/M03 Q1035 RMK SH NW BIRD HAZARD RWY 12/30 PP000
    SPJL 211900Z 35004KT 9999 SCT020 SCT100 13/M03 Q1036 RMK BIRD HAZARD RWY 12/30 PP000
    SPJL 211800Z 31005KT 9999 SCT020 BKN100 12/M04 Q1037 RMK BIRD HAZARD RWY 12/30 PP000


0 stations reporting 3-hourly pressure fall of 10mb or greater

0 stations reporting 3-hourly pressure fall of 5mb to 9.9mb

3 stations reporting 3-hourly pressure rise of 5mb to 9.9mb

  • CWIK: Broadview, Sask., Canada [6.9mb]
    CWIK 212000Z AUTO 16009KT 19/14 RMK AO1 5PAST HR 8016 SLP205 P0014 T01930135 50069
    CWIK 212100Z AUTO 12007KT 21/14 RMK AO1 6013 SLP205 T02050142 50069
  • CXET: Egbert Cs, ON, Canada [7.1mb]
    CXET 211900Z AUTO 13006KT 24/22 RMK AO1 8PAST HR 6019 SLP207 P0027 T02380219 50068
    CXET 212000Z AUTO 14004KT 23/21 RMK AO1 6014 SLP205 T02310214 50068
    CXET 212100Z AUTO 10007KT 23/21 RMK AO1 3PAST HR 8012 SLP198 P0001 T02270212 50071
  • MMTO: Toluca / Jose Maria, Mexico [5.6mb]
    MMTO 211752Z 06014KT 6SM SCT015 BKN080 BKN200 20/10 A3026 RMK SLP033 52056 923 8/532
0 stations reporting 3-hourly pressure rise of 10mb or greater


1 station reporting heavy snow

  • KCPW: Pagosa Springs, Wolf Creek Pass, CO, United States
    KCPW 211755Z AUTO 22016G25KT M1/4SM +SN OVC001 07/07 A3067 RMK AO2 LTG DSNT S AND NW
    KCPW 211835Z AUTO 23007G19KT 190V280 M1/4SM +SN OVC001 07/07 A3067 RMK AO2 LTG DSNT N S AND NW
0 stations reporting any sleet

0 stations reporting any freezing rain

90 stations reporting heavy rain

  • CYXQ: Beaver Creek Airport, Canada
    CYXQ 212139Z 01012KT 290V010 20SM +SHRA OVC045CB 15/10 A2981 RMK CB8 SLP113 DENSITY ALT 2800FT
  • EGCK: Caernarfon, United Kingdom
    EGCK 212120Z AUTO 20011KT 170V230 1700 +RA FEW002/// OVC009/// 14/13 Q1008
  • EKBI: Billund Lufthavn, Denmark
    EKBI 211750Z AUTO 05006KT 5000 +RA OVC042/// 14/13 Q1010
  • EKKA: Karup, Denmark
    EKKA 211934Z 12006KT 4500 +RA OVC028 15/14 Q1011
  • K1P1: Plymouth, Plymouth Municipal Airport, NH, United States
    K1P1 211815Z AUTO 00000KT 2SM +RA SCT011 SCT017 OVC028 20/17 A3021 RMK AO2 VIS 1V5 P0003 T02010165
  • K2P2: Washington Island, WI, United States
    K2P2 211915Z AUTO 32003KT 7SM +RA SCT047 BKN065 OVC095 16/16 A3022 RMK AO2 P0002 T01550155
    K2P2 211935Z AUTO 06007KT 3SM +RA SCT038 BKN050 OVC080 15/15 A3015 RMK AO2 P0018 T01540154
  • K4B8: UNKNOWN,
    K4B8 212115Z AUTO 34009G18KT 3SM +RA BR VCTS FEW004 SCT044 OVC060 22/22 A3013 RMK AO2 TSE2103 P0028 T02240223
  • KACQ: Waseca, Waseca Municipal Airport, MN, United States
    KACQ 211815Z AUTO 00000KT 5SM +RA SCT014 BKN036 OVC049 19/19 A3015 RMK AO2 P0003
  • KAMN: Alma, Gratiot Community Airport, MI, United States
    KAMN 211835Z AUTO 28012G16KT 5SM +RA SCT039 BKN044 OVC060 26/21 A3015 RMK AO2 T02620209
  • KAVP: Wilkes-Barre/Scranton, PA, United States
    KAVP 212044Z VRB04KT 1 3/4SM R04/4500VP6000FT +RA SCT042 SCT055 BKN075 28/22 A3011 RMK AO2 RAB39 P0001 T02780222
  • KBDL: Windsor Locks, Bradley Intl Arpt, CT, United States
    KBDL 212014Z 36012KT 1 1/2SM R06/2800VP6000FT +RA BKN003CB BKN050 OVC090 27/24 A3008 RMK AO2 RAB1956 CB OHD MOVE P0006 T02720239 $
    KBDL 212014Z COR 36012KT 1 1/2SM R06/2800VP6000FT +RA BKN003CB BKN050 OVC090 27/24 A3008 RMK AO2 RAB1956 CB OHD MOV E P0006 T02720239 $
  • KBIS: Bismarck, Bismarck Municipal Airport, ND, United States
    KBIS 211924Z 11007KT 2SM R31/6000VP6000FT VCTS +RA BR SCT014 BKN041 OVC065 17/17 A3010 RMK AO2 LTG DSNT NW-E TSB04E19 P0011 T01720167
    KBIS 211934Z 10006KT 2SM R31/5000VP6000FT +RA BR FEW012 BKN041 OVC070 17/17 A3010 RMK AO2 LTG DSNT NW-E TSB04E19 P0017 T01720167
    KBIS 211945Z 07004KT 1 3/4SM +RA BR FEW015 BKN039 OVC055 17/17 A3010 RMK AO2 LTG DSNT N AND NE TSB04E19 P0026 T01720167
    KBIS 211952Z AUTO 06005KT 2SM +RA BR FEW015 BKN037 OVC065 17/17 A3010 RMK AO2 LTG DSNT NE TSB04E19 SLP192 P0032 T01720167
  • KBPT: Beaumont / Port Arthur, TX, United States
    KBPT 211941Z 07016G29KT 1 3/4SM R12/4500VP6000FT +RA BR BKN042 OVC050 26/24 A3011 RMK AO2 PK WND 10029/1933 VIS 1V5 RAB34 P0002 T02560239
    KBPT 211953Z 05009KT 2 1/2SM R12/5500VP6000FT +RA BR SCT040 BKN050 OVC065 26/23 A3011 RMK AO2 PK WND 10029/1933 WSHFT 1931 RAB34 SLP194 P0009 T02560233
  • KCHS: Charleston, Charleston AFB, SC, United States
    KCHS 211929Z 11018G26KT 2SM +RA BKN027 BKN036 OVC044 27/24 A3013 RMK AO2 PK WND 11026/1927 RAB23 P0001 T02720239
  • KCQC: Clines Corners, NM, United States
    KCQC 211857Z AUTO 15009G18KT 1 3/4SM +RA BR FEW028 BKN038 OVC050 18/16 A3037 RMK AO2 VIS 3/4V5 P0001 T01780161
    KCQC 211953Z AUTO 01007KT 1/4SM +RA FG BKN015 OVC024 17/17 A3036 RMK AO2 SLP200 P0020 T01670167
  • KCRG: Jacksonville, Craig Municipal Airport, FL, United States
    KCRG 212049Z 35011G19KT 5SM +RA BR FEW020 BKN034 OVC055 27/25 A3002 RMK AO2 RAB36 P0002
  • KCYS: Cheyenne, Cheyenne Airport, WY, United States
    KCYS 212032Z 25009G14KT 2SM VCTS +RA SCT060 BKN080 OVC100 21/13 A3013 RMK AO2 LTG DSNT S-NW RAB11 TSB06E32 PRESRR P0002 T02060133
  • KD95: Lapeer, MI, United States
    KD95 212135Z AUTO 36016G25KT 1SM +RA BKN009 BKN017 OVC025 22/21 A3016 RMK AO2 P0025 T02170211
  • KDHT: Dalhart, Dalhart Municipal Airport, TX, United States
    KDHT 211753Z AUTO 22018G34KT 3SM +RA BR SCT028 BKN044 BKN060 22/19 A3023 RMK AO2 PK WND 21034/1747 RAB50 SLP185 P0002 60002 T02170194 10272 20194 55003
  • KDIK: Dickinson, Dickinson Municipal Airport, ND, United States
    KDIK 211837Z AUTO 08013KT 2SM +RA BR BKN060 OVC080 14/14 A3007 RMK AO2 LTG DSNT NE AND E TSE03B08E31 PRESFR P0017 T01440144
  • KDSV: Dansville, Dansville Municipal Airport, NY, United States
    KDSV 211822Z AUTO 16008KT 1 3/4SM +RA FEW035 BKN047 26/22 A3016 RMK AO2 LTG DSNT NE AND E RAB20 TSB07E22 P0009 T02560222
    KDSV 211850Z AUTO 17009KT 1 3/4SM +RA FEW016 SCT026 BKN046 26/23 A3016 RMK AO2 LTG DSNT NE AND SW RAB20 TSB07E22 P0025
    KDSV 211854Z AUTO 13008KT 1SM +RA BR FEW016 BKN044 BKN060 25/23 A3015 RMK AO2 LTG DSNT NE AND SW RAB20 TSB07E22 SLP215 P0029 T02500228
    KDSV 211915Z AUTO 19008KT 1 3/4SM +RA BR FEW030 BKN047 OVC075 25/23 A3015 RMK AO2 LTG DSNT S AND SW P0006 T02500228
    KDSV 211939Z AUTO 19003KT 2 1/2SM +RA SCT045 BKN060 OVC080 26/23 A3017 RMK AO2 LTG DSNT S AND SW PRESRR P0013 T02560228
    KDSV 211947Z AUTO 15014G18KT 1 1/4SM +RA SCT038 BKN045 OVC080 26/23 A3017 RMK AO2 LTG DSNT NE AND S AND SW P0020 T02560228
  • KDVP: Slayton, MN, United States
    KDVP 211913Z AUTO 02003KT 4SM +RA OVC005 20/19 A3012 RMK AO2 P0004 T01950185
    KDVP 211933Z AUTO 00000KT 2SM +RA OVC005 20/19 A3012 RMK AO2 P0013 T01950186
  • KEVU: Maryville, MO, United States
    KEVU 212055Z AUTO 15013G30KT 1 1/4SM +RA SCT006 SCT035 BKN046 27/23 A3009 RMK AO2 LTG DSNT NE AND S P0010 T02690236
  • KEZS: Shawano, WI, United States
    KEZS 211755Z AUTO 06003KT 5SM +RA SCT023 OVC030 18/18 A3022 RMK AO2 LTG DSNT S P0015 60015 T01800175 10195 20180
    KEZS 211835Z AUTO 11003KT 2SM +RA SCT008 BKN028 OVC043 A3019 RMK AO2 LTG DSNT S P0014
  • KFBL: Faribault Municipal, MN, United States
    KFBL 211755Z AUTO 00000KT 4SM +RA SCT005 BKN010 OVC025 19/19 A3014 RMK AO2
  • KFKA: Preston, Fillmore County Airport, MN, United States
    KFKA 212035Z AUTO VRB06G12KT 1SM +RA BR BKN004 BKN007 OVC019 21/21 A3011 RMK AO2 LTG DSNT N-E VIS 3/4V2
  • KFNT: Flint, Bishop Intl Arpt, MI, United States
    KFNT 212130Z 03009KT 1SM R09/2800VP6000FT VCTS +RA BR FEW006 BKN031 OVC046 22/21 A3015 RMK AO2 PK WND 03026/2112 WSHFT 2052 LTG DSNT ALQDS RAB13 TSB07E30 P0032 T02220211
  • KGFL: Glens Falls, NY, United States
    KGFL 212110Z AUTO 01004KT 1 1/2SM +RA BR FEW005 BKN033 OVC075 20/19 A3013 RMK AO2 P0013 T02000194
  • KHFD: Hartford, Hartford-Brainard Airport, CT, United States
    KHFD 212053Z 08004KT 2 1/2SM VCTS +RA BR SCT048 BKN070 OVC085 25/23 A3007 RMK AO2 LTG DSNT ALQDS RAB1959 TSE40 SLP182 TS N-NE MOV E P0017 60021 T02500233 55009
    KHFD 212114Z 31009G17KT 1 3/4SM VCTS +RA BR FEW039 BKN070 OVC085 25/23 A3012 RMK AO2 LTG DSNT ALQDS PRESRR P0012 T02500233
  • KHYX: Saginaw, MI, United States
    KHYX 211955Z AUTO 34004KT 4SM +RA BR SCT042 BKN060 BKN085 24/22 A3014 RMK AO2 P0012
  • KHZE: Hazen, ND, United States
    KHZE 211935Z AUTO 00000KT 1SM +RA SCT004 OVC013 17/17 A3014 RMK AO2 LTG DSNT E AND SE
  • KIKW: Barstow, MI, United States
    KIKW 211935Z AUTO 07005KT 2SM +RA HZ OVC020 24/21 A3015 RMK AO2 PRESRR VIS 1 1/4V5
  • KLBF: North Platte, NE, United States
    KLBF 212058Z AUTO 14027G49KT 120V190 1 1/4SM VCTS +RA FEW021 OVC065 24/19 A2990 RMK AO2 PK WND 12049/2058 LTG DSNT ALQDS RAB54 P0000 T02440194
  • KLEB: Lebanon, Lebanon Municipal Airport, NH, United States
    KLEB 211900Z 18003KT 1 1/2SM +RA BR OVC021 23/21 A3016 RMK AO2 P0008 T02280211
    KLEB 211909Z 00000KT 3/4SM +RA BR OVC021 23/21 A3016 RMK AO2 P0020 T02280211
    KLEB 211915Z 36004KT 1 1/4SM +RA BR FEW006 OVC021 23/21 A3016 RMK AO2 P0025 T02280211
  • KLHW: Ft. Stewart, GA, United States
    KLHW 212007Z 05008KT 6SM +RA BKN031 OVC060 28/25 A3005 RMK RAB00 SLP179 $
  • KLNR: Lone Rock, Tri-County Regional Airport, WI, United States
    KLNR 212018Z AUTO 33004KT 3/4SM +RA FEW021 SCT044 BKN075 26/22 A3008 RMK AO2 LTG DSNT NE AND E AND W RAB15 P0016 T02560222
  • KLVS: Las Vegas, Las Vegas Municipal Airport, NM, United States
    KLVS 212132Z AUTO 15014G22KT 2 1/2SM +RA BR FEW006 BKN011 OVC039 17/16 A3033 RMK AO2 PK WND 17026/2102 WSHFT 2118 TSE12 P0017 T01670156
  • KLWD: Lamoni, Lamoni Municipal Airport, IA, United States
    KLWD 212004Z AUTO 21023G41KT 3/4SM +RA BR FEW010 BKN036 BKN046 24/22 A3013 RMK AO2 PK WND 21041/2001 RAB01 PRESRR P0000 T02390222
  • KMCW: Mason City, Mason City Municipal Airport, IA, United States
    KMCW 212122Z AUTO 34013KT 3/4SM +RA BR BKN029 BKN042 OVC060 23/22 A3005 RMK AO2 PK WND 28029/2108 RAB05 TSB06E21 P0033 T02330217
  • KMHE: Mitchell, Mitchell Municipal Airport, SD, United States
    KMHE 211913Z AUTO 30003KT 3/4SM VCTS +RA BR BKN011 OVC018 21/19 A3007 RMK AO2 LTG DSNT S AND SW RAB01 P0012 T02110194
    KMHE 211935Z AUTO 09008KT 3/4SM VCTS +RA BR FEW011 SCT018 OVC031 20/19 A3004 RMK AO2 LTG DSNT E AND S RAB01 TSB18E33 PRESFR P0063 T02000194
  • KMKS: Berkeley, SC, United States
    KMKS 212015Z AUTO 09005KT 1 1/4SM +RA BKN013 OVC022 26/24 A3013 RMK AO2 P0008
    KMKS 212035Z AUTO 12007G16KT 1 1/4SM +RA SCT008 BKN013 OVC019 25/24 A3014 RMK AO2 VIS 1/2V5 P0026
  • KMNI: Manning / Cooper Regional, United States
    KMNI 211955Z AUTO 12006G14KT 4SM +RA SCT038 BKN044 OVC060 29/21 A3014 RMK AO2 P0002
  • KNBC: Beaufort, Marine Corps Air Stn, SC, United States
    KNBC 211817Z 09006G17KT 2SM +RA BKN025 BKN034 OVC075 27/24 A3013 RMK AO2 P0001 T02720244
    KNBC 211819Z 06005G17KT 1 1/2SM +RA BR BKN025 BKN034 OVC047 27/24 A3013 RMK AO2 P0002 T02670244
    KNBC 211821Z 06004G17KT 7SM +RA BKN025 27/24 A3012 RMK AO2 VIS N 3/4 P0002 T02670244
    KNBC 212053Z 09004KT 1 1/4SM +RA BR FEW016 BKN027 27/26 A3010 RMK AO2 RAB42 VIS NW 3 P0004
    KNBC 212056Z 08003KT 1/2SM +RA BR FEW016 BKN027 27/26 A3010 RMK AO2 SFC VIS 1 1/4 RAB42 SLP192 VIS NW 3 P0005 60008 T02720256 57012
  • KOLE: Olean Municipal, NY, United States
    KOLE 211755Z AUTO 31005G16KT 5SM +RA SCT030 BKN040 OVC110 23/18 A3025 RMK AO2 LTG DSNT ALQS
  • KONA: Winona Municipal, MN, United States
    KONA 212015Z AUTO 02003KT 1/2SM +RA BKN003 OVC010 20/20 A3009 RMK AO2 P0042
    KONA 212055Z AUTO 10003KT 1SM +RA OVC010 20/20 A3010 RMK AO2 P0072
  • KONM: Socorro Municipal, NM, United States
    KONM 212015Z AUTO 20008G20KT 5SM +RA SCT031 BKN041 OVC075 22/19 A3021 RMK AO2 P0003 T02230190
  • KOSH: Oshkosh, Wittman Regional Airport, WI, United States
    KOSH 211830Z 36011G21KT 2SM R36/2400VP6000FT VCTS +RA BR SCT013 OVC020 21/19 A3016 RMK AO2 WSHFT 1813 VIS 3/4V5 LTG DSNT N AND NE RAB10 P0017 T02110189
    KOSH 211837Z 05006G19KT 1 1/2SM R36/2400VP6000FT VCTS +RA BR OVC016 21/19 A3015 RMK AO2 WSHFT 1813 LTG DSNT N AND NE RAB10 P0022 T02060189
  • KOWA: Owatonna, MN, United States
    KOWA 211833Z AUTO 35007KT 4SM +RA SCT004 BKN011 OVC047 20/19 A3013 RMK AO2 P0002
  • KPOU: Poughkeepsie, Dutchess County Airport, NY, United States
    KPOU 212025Z 03007KT 1SM VCTS +RA BR SCT034 BKN046 OVC090 23/21 A3010 RMK AO2 PK WND 02031/1957 WSHFT 1942 LTG DSNT ALQDS RAB15 P0011 T02330211
  • KRGK: Red Wing, Red Wing Municipal Airport, MN, United States
    KRGK 211755Z AUTO 07004KT 2 1/2SM +RA OVC011 20/19 A3013 RMK AO2
    KRGK 211815Z AUTO 06006KT 3SM +RA BKN011 OVC020 20/19 A3012 RMK AO2
  • KRKS: Rock Springs, WY, United States
    KRKS 212008Z AUTO 25021G29KT 3SM +RA SCT065 BKN080 OVC090 14/10 A3014 RMK AO2 PK WND 26029/2008 WSHFT 1950 LTG DSNT N AND NE TSE08 P0007 T01440100
  • KRNP: Owosso, Owosso Community Airport, MI, United States
    KRNP 212055Z AUTO 34010G19KT 3/4SM +RA BKN005 OVC010 23/21 A3014 RMK AO2 T02310207
  • KRRL: Merrill, Merrill Municipal Airport, WI, United States
    KRRL 211915Z AUTO 06003KT 5SM +RA OVC009 17/17 A3019 RMK AO2 P0002 T01660166 TSNO
  • KRST: Rochester, Rochester Intl Arpt, MN, United States
    KRST 211942Z 36014KT 1 1/4SM R31/1600VP6000FT +RA BR OVC004 20/19 A3011 RMK AO2 LTG DSNT ALQDS RAB36 TSE00B19E34 P0001 T02000194
    KRST 211947Z 02012G23KT 1/2SM R31/1200V5500FT VCTS +RA FG BKN004 OVC011 20/19 A3010 RMK AO2 LTG DSNT ALQDS RAB36 TSE00B19E34 P0020 T02000189
    KRST 211954Z 03011KT 1SM R31/2600VP6000FT VCTS +RA BR SCT004 OVC013 20/19 A3011 RMK AO2 LTG DSNT ALQDS RAB36 TSE00B19E34 SLP194 P0041 T02000194
    KRST 212002Z 02011KT 1 1/2SM R31/2600VP6000FT VCTS +RA BR SCT004 OVC011 20/19 A3011 RMK AO2 LTG DSNT E AND S P0008 T02000194
    KRST 212004Z 03013KT 1 1/4SM R31/2600VP6000FT VCTS +RA BR FEW004 SCT008 OVC015 20/19 A3010 RMK AO2 LTG DSNT E AND S P0010 T02000194
    KRST 212012Z 02012KT 1 1/2SM R31/2000VP6000FT +RA BR SCT007 BKN027 OVC070 20/19 A3010 RMK AO2 LTG DSNT E-S P0029 T02000194
  • KSAV: Savannah, GA, United States
    KSAV 212017Z 05010G20KT 1 3/4SM R10/4500VP6000FT +RA FEW029 SCT043 BKN050 27/24 A3009 RMK AO2 RAB12 P0003 T02720239
  • KSBM: Sheboygan, WI, United States
    KSBM 211933Z AUTO 08010KT 1 3/4SM +RA BR SCT008 BKN060 OVC090 18/18 A3016 RMK AO2 LTG DSNT N RAB14 P0008 T01830178
  • KSGJ: St. Augustine, St. Augustine Airport, FL, United States
    KSGJ 212056Z 33013KT 4SM +RA BR BKN018 BKN022 OVC035 27/25 A3003 RMK AO2 RAE07B30 SLP168 6//// T02670250 56018 PNO $
  • KSHL: Sheldon, IA, United States
    KSHL 212055Z AUTO 33019G32KT 280V360 1/4SM +RA BKN002 BKN025 BKN034 23/21 A2999 RMK AO2
  • KSTJ: St. Joseph, Rosecrans Memorial Airport, MO, United States
    KSTJ 212016Z VRB05G41KT 1/2SM R35/1400VP6000FT +RA FEW014 SCT032 BKN038 26/23 A3011 RMK AO2 PK WND 19041/2013 RAB12 PRESRR P0029 T02610233
  • KTOB: Dodge Center, Dodge Center Airport, MN, United States
    KTOB 211915Z AUTO 35011G17KT 4SM +RA BKN003 BKN019 OVC028 20/20 A3012 RMK AO2 P0003
  • KTTF: Monroe, Custer Airport, MI, United States
    KTTF 211835Z AUTO 22012G20KT 2SM +RA SCT027 BKN047 OVC090 24/22 A3019 RMK AO2 P0016 T02420217
    KTTF 211855Z AUTO 17005KT 1 1/2SM +RA SCT027 BKN045 OVC080 23/22 A3017 RMK AO2 P0034 T02310220
  • KUES: Waukesha, Waukesha County Airport, WI, United States
    KUES 212112Z 16008KT 1SM +RA SCT033 BKN045 OVC060 23/21 A3013
  • KVCT: Victoria, Victoria Regional Airport, TX, United States
    KVCT 212031Z 07018G40KT 2 1/2SM VCTS +RA BR FEW029 BKN042 BKN050 24/23 A3006 RMK AO2 PK WND 08040/2022 WSHFT 2016 VIS 3/4V5 RAB24 PRESRR P0001 T02440228
  • KVSF: Springfield, VT, United States
    KVSF 211745Z AUTO 05003KT 1 3/4SM +RA FEW029 BKN060 OVC110 26/21 A3016 RMK AO2 RAB32 P0006 T02610211
    KVSF 211754Z AUTO 00000KT 1SM +RA SCT039 BKN055 OVC085 25/21 A3016 RMK AO2 RAB32 SLP211 P0015 60015 T02500211 10278 20211 58015
    KVSF 211805Z AUTO VRB03KT 3/4SM +RA FEW027 SCT040 OVC055 24/21 A3016 RMK AO2 P0009 T02440211
  • KW99: Petersburg, Grant County Airport, WV, United States
    KW99 212115Z AUTO 02009KT 1/2SM +RA BKN060 OVC090 29/20 A3014 RMK AO2 RAB2101 P0023 T02910203
  • LSGC: Les Eplatures, Switzerland
    LSGC 211850Z AUTO 26006KT 200V300 4700 +RA BR SCT013 BKN015 BKN017 14/13 Q1018
  • LSMA: Alpnach, Switzerland
    LSMA 212050Z AUTO VRB02KT 5000NDV +SHRA FEW011 SCT021 OVC053 16/15 Q1018 RMK
  • MGGT: Guatemala Aeropuertola Aurora, Guatemala
    MGGT 212015Z 18010KT 1500 +RA BKN004 OVC080
  • MMSP: San Luis Potosi, S. L. P., Mexico
    MMSP 212023Z 12020G30KT 1 1/2SM +RA SCT010 OVC012 17/14 A3022 RMK 8/7// +RAB19
  • MMUN: Cancun Intl Arpt, Mexico
    MMUN 211916Z 11018KT 2SM +RA BKN010CB OVC070 29/26 A2988 RMK 8/37/ RAB10 VRB COND INTMT RA
    MMUN 212034Z 12015G25KT 2SM +RA BKN008CB OVC070 27/25 A2987 RMK 8/36/ VRB COND SC INTMT RA
  • MRPV: Tobias Bolanos International, Costa Rica
    MRPV 212108Z 23003KT 1500 +RA BKN010TCU 21/21 A3000 NOSIG
  • MUCM: Camaguey Aeropuerto, Cuba
    MUCM 212107Z 11010KT 090V160 1000 +RA VCTS FEW018CB BKN020 26/20 Q1015 RMK CB AT II QUAD
  • MUVR: Varadero, Matanzas, Cuba
    MUVR 212100Z 09016G26KT 060V120 0700 R06///// D +SHRA FEW018CB BKN020 25/23 Q1015 RMK CB AT I II III AND OVER AD
    MUVR 212100Z 09016G26KT 060V120 0700 R06///// D +SHRA FEW018CB BKN020 25/23 Q1015 RMK CB AT I/II/III AND OVER AD
  • RJFT: Kumamoto Airport, Japan
    RJFT 212140Z 17003KT 110V210 2500 R07/1500VP2000D +SHRA BR FEW010 BKN020 BKN025 23/22 Q1005 RMK 2CU010 6CU020 7CU025 A2970 RI++
  • RJFY: Kanoya Ab, Japan
    RJFY 212126Z 26010KT 4900 +SHRA BR FEW003 BKN006 OVC010 FEW010CB 26/24 Q1005 RMK 2ST003 5ST006 8CU010 2CB010 A2970 FBL LIGHTNING 40KM N AND CB OHD MOV E
  • RORT: Tarama Island, Japan
    RORT 211900Z AUTO 20016G27KT 2100 +RA BR FEW010 SCT027 BKN050 28/26 Q1007
  • SBOI: Oiapoque, Brazil
    SBOI 211810Z AUTO 16009KT 110V200 9000 +RA BKN026 BKN030 25/24 Q1010
    SBOI 211814Z AUTO 17006KT 110V240 3100 +RA OVC024 25/24 Q1010
  • SCPD: Pedro de Valdivia Airport, Chile
    SCPD 211800Z 31007KT 4000 +RA FEW007 OVC040 07/07 Q1015
    SCPD 211900Z 30011KT 4000 +RA FEW009 OVC040 07/07 Q1015
    SCPD 212000Z 29005KT 4000 +RA FEW009 OVC040 06/06 Q1016
  • SCRG: De La Independen, Chile
    SCRG 211800Z 04014KT 1500 +RA OVC007 06/05 Q1015
    SCRG 211900Z 04017KT 1500 +RA OVC008 07/06 Q1014
  • SCTB: Aerodromo Eulogio Sanchez, Santiago, Chile
    SCTB 211800Z 20006KT 2000 +RA SCT010 OVC060 06/06 Q1016
    SCTB 211900Z 15006KT 3000 +RA OVC050 06/06 Q1016
    SCTB 212000Z 27003KT 3000 +RA OVC050 06/06 Q1017
    SCTB 212100Z 01005KT 3000 +RA OVC050 06/05 Q1016
  • SCVM: Base Aeronaval Torqumada, Chile
    SCVM 212100Z 07006KT 020V110 6000 +RA BKN008 OVC020 11/11 Q1015
  • VDSV: Sihanoukville, Cambodia
    VDSV 211830Z 31015KT 280V350 2000 +RA SCT015 FEW017CB BKN040 24/24 Q1006 RMK CB
  • VOTV: Thiruvananthapuram, India
    VOTV 211830Z 28008KT 1500 R32/P2000 +RA SCT008 SCT012 FEW025CB BKN080 25/24 Q1009 NOSIG
    VOTV 211900Z 34006KT 2000 +RA SCT008 SCT012 FEW025CB BKN080 25/25 Q1009 NOSIG
    VOTV 211930Z 34006KT 1000 R14/1500 +RA SCT008 SCT012 FEW025CB BKN080 25/24 Q1008
    VOTV 211930Z 34006KT 1000 +RA SCT008 SCT012 FEW025CB BKN080 25/24 Q1008
  • WIOO: Pontianak / Supadio, Indonesia
    WIOO 211830Z AUTO VRB02KT 3100 +RA SCT004 BKN031 OVC045 23/23 Q1010
    WIOO 212030Z AUTO 11004KT 070V140 2800 +RA SCT004 OVC017 23/23 Q1009
  • WSAP: Singapore / Paya Lebar, Singapore
    WSAP 212000Z 23003KT 2000 +SHRA FEW014CB SCT016TCU 23/23 Q1011 RETS
  • WSSL: Singapore / Seleta, Singapore
    WSSL 211914Z 26012G24KT 220V300 3500 +SHRA FEW012 FEW015CB SCT016TCU 24/22 Q1010
    WSSL 212020Z 25004KT 200V320 3500 +SHRA FEW012 FEW015CB SCT016TCU 24/23 Q1010 RETS
    WSSL 212100Z 25004KT 180V330 4500 +RA FEW012 FEW016TCU BKN150 24/24 Q1010 RETS
  • WSSS: Singapore / Changi Airport, Singapore
    WSSS 212000Z 24005KT 180V340 2500 +SHRA FEW008 FEW015CB SCT016TCU 23/23 Q1010
    WSSS 212030Z 22004KT 190V310 2500 +RA FEW010 SCT018 BKN140 24/23 Q1010
    WSSS 212100Z 24003KT 160V300 2500 +RA FEW010 SCT018 BKN140 24/23 Q1010
  • YPEA: Bullsbrook Pearce Amo, Australia
    YPEA 212126Z AUTO 33010KT 6000 +SHRA FEW005 SCT030 BKN115 14/11 Q1016
    YPEA 212130Z AUTO 33011KT 6000 +SHRA SCT013 SCT051 BKN115 14/11 Q1016
  • YPJT: Perth Jandakot, Australia
    YPJT 212020Z AUTO 36011KT 3600 +SHRA FEW019 BKN028 BKN037 13/11 Q1015
    YPJT 212030Z AUTO 36008KT 5000 +SHRA SCT023 BKN035 BKN046 13/11 Q1015
  • YSSY: Sydney Airport, Australia
    YSSY 212000Z 23012KT 6000 +RA FEW015 SCT025 BKN045 10/09 Q1023
    YSSY 212030Z 25014G27KT 6000 +RA FEW010 SCT020 BKN050 09/09 Q1024
3 stations reporting unknown precipitation type

  • K28J: Palatka, FL, United States
    K28J 211935Z AUTO VRB03KT 10SM UP BKN041 BKN049 BKN060 33/24 A3003 RMK AO2
  • KCFE: Buffalo, Buffalo Municipal Airport, MN, United States
    KCFE 211855Z AUTO 08006KT 10SM UP OVC016 21/21 A3013 RMK AO2
  • KIZA: Santa Ynez, Santa Ynez Airport, CA, United States
    KIZA 212055Z AUTO 27007KT 8SM UP CLR 25/12 A2979 RMK AO2


0 stations reporting ice accretion in the past 1 hour

0 stations reporting ice accretion in the past 3 hours

0 stations reporting ice accretion in the past 6 hours

0 stations reporting hourly snow depth increase (SNINCR) of 3+"

0 stations reporting hourly snow depth increase (SNINCR) of 2"

0 stations reporting hourly snow depth increase (SNINCR) of 1"

0 stations reporting hourly (melted) precip total of 3" or greater

0 stations reporting hourly (melted) precip total of 2-2.99"

2 stations reporting hourly (melted) precip total of 1-1.99"

  • KLBF: North Platte, NE, United States [1.03in]
    KLBF 212143Z AUTO 33012KT 1SM +TSRA BR FEW010 BKN023 OVC075 22/21 A2996 RMK AO2 PK WND 12051/2059 LTG DSNT N-SE RAB2054 TSB00E17B18 P0103 T02170206
  • KMHE: Mitchell, Mitchell Municipal Airport, SD, United States [1.10in]
    KMHE 212133Z AUTO 13012KT 1/2SM +TSRA FG FEW007 OVC015 21/19 A2996 RMK AO2 PK WND 03028/2111 LTG DSNT NE AND W TSB11 PRESFR P0108 T02060194
    KMHE 212141Z AUTO 14013KT 2 1/2SM TSRA BR BKN015 BKN055 OVC090 21/19 A2994 RMK AO2 PK WND 03028/2111 VIS 1V5 LTG DSNT NE AND E AND W TSB11 PRESFR P0110 T02060189
10 stations reporting hourly (melted) precip total of 0.5-0.99"

  • K4B8: UNKNOWN, [0.55in]
    K4B8 212135Z AUTO 00000KT 2 1/2SM -TSRA BR FEW005 OVC070 23/22 A3014 RMK AO2 TSE2103B2124 P0055 T02260220
  • K9MN: Rochester/St. Mary's, MN, United States [0.78in]
    K9MN 211935Z AUTO 35003G18KT 1/2SM BKN003 OVC009 20/20 A3013 RMK AO1 P0059 T01950195
    K9MN 211955Z AUTO 01007G15KT 3SM SCT003 BKN011 OVC048 19/19 A3011 RMK AO1 P0078 T01920193
  • KBAF: Westfield, Barnes Municipal Airport, MA, United States [0.76in]
    KBAF 212049Z 03008G22KT 1/2SM +TSRA FG BKN026 BKN050 OVC110 23/22 A3010 RMK AO2 PK WND 34040/2033 WSHFT 2029 LTG DSNT ALQDS RAB02 TSB10 TS NW P0065 RVRNO
    KBAF 212053Z 03005G19KT 3/4SM +TSRA BR BKN028 BKN048 OVC110 23/22 A3011 RMK AO2 PK WND 34040/2033 WSHFT 2029 LTG DSNT ALQDS RAB02 TSB10 SLP195 TS NW P0076 60076 T02280217 53005 RVRNO
  • KDLL: Baraboo, Baraboo Wisconsin Dells Airport, WI, United States [0.73in]
    KDLL 211955Z AUTO 27003KT 1SM +VCTSRA BKN010 BKN024 OVC055 24/23 A3012 RMK AO2 LTG DSNT ALQDS P0073 T02400232
    KDLL 211955Z AUTO 27003KT 1SM /VCTSRA BKN010 BKN024 OVC055 24/23 A3012 RMK AO2 LTG DSNT ALQDS P0073 T02400232
  • KELM: Elmira, Elmira / Corning Regional Airport, NY, United States [0.60in]
    KELM 212107Z 12008G19KT 1/2SM R24/1000V6000FT +TSRA FG BKN015 BKN043 OVC060 22/20 A3015 RMK AO2 PK WND 27036/2057 LTG DSNT NW P0057 T02220200
    KELM 212114Z 12004KT 2SM R24/4500VP6000FT +TSRA SCT015 BKN043 OVC090 23/20 A3014 RMK AO2 PK WND 27036/2057 LTG DSNT NW PRESFR P0060 T02280200
    KELM 212122Z 35004KT 10SM -TSRA SCT013 SCT070 BKN090 22/21 A3014 RMK AO2 PK WND 27036/2057 LTG DSNT SE P0060 T02220206
    KELM 212132Z 10SM VCTS FEW026 FEW070 SCT090 23/21 A3013 RMK AO2 PK WND 27036/2057 LTG DSNT E AND SE RAE25 TSE26 P0060 T02280206
    KELM 212141Z 15003KT 10SM FEW095 23/21 A3013 RMK AO2 PK WND 27036/2057 LTG DSNT E AND SE RAE25 TSE26 P0060 T02330211
  • KEST: Estherville, IA, United States [0.58in]
    KEST 212105Z AUTO 10016G28KT 1/4SM +TSRA BKN013 BKN065 OVC095 23/19 A3004 RMK AO2 PK WND 14028/2102 LTG DSNT SW P0055 T02280189
    KEST 212109Z AUTO 1/2SM +TSRA BKN018 BKN035 OVC090 22/18 A3003 RMK AO2 PK WND 14028/2102 LTG DSNT SW PRESFR P0058 T02220183
    KEST 212112Z AUTO 1SM TSRA SCT020 BKN035 OVC120 22/18 A3003 RMK AO2 PK WND 14028/2102 LTG DSNT SW P0058 T02220183
    KEST 212114Z AUTO 11006KT 2SM -TSRA SCT020 BKN060 OVC120 23/19 A3003 RMK AO2 PK WND 14028/2102 LTG DSNT SW P0058 T02280189
    KEST 212121Z AUTO 12007KT 10SM TS SCT018 SCT065 BKN110 24/19 A3003 RMK AO2 PK WND 14028/2102 RAE21 P0058 T02390189
    KEST 212128Z AUTO 11009KT 10SM VCTS FEW017 BKN110 23/19 A3003 RMK AO2 PK WND 14028/2102 LTG DSNT E RAE21 TSE22 P0058 T02330194
    KEST 212139Z AUTO 05011KT 10SM SCT110 23/21 A3003 RMK AO2 PK WND 14028/2102 LTG DSNT ALQDS RAE21 TSE22 P0058 T02330206
  • KMHE: Mitchell, Mitchell Municipal Airport, SD, United States [0.87in]
    KMHE 211932Z AUTO 07006KT 1/2SM +TSRA FG SCT011 SCT018 OVC027 20/19 A3005 RMK AO2 LTG DSNT E AND S RAB01 TSB18 P0061 T02000194
    KMHE 211935Z AUTO 09008KT 3/4SM VCTS +RA BR FEW011 SCT018 OVC031 20/19 A3004 RMK AO2 LTG DSNT E AND S RAB01 TSB18E33 PRESFR P0063 T02000194
    KMHE 211942Z AUTO 09018G23KT 1SM VCTS -RA BR FEW011 BKN029 OVC100 20/19 A2995 RMK AO2 LTG DSNT E AND S RAB01 TSB18E33 PRESFR P0065 T02000194
    KMHE 211945Z AUTO 08015G23KT 1SM RA BR BKN031 BKN055 OVC100 20/19 A2996 RMK AO2 LTG DSNT E RAB01 TSB18E33 PRESFR P0066 T02000194
    KMHE 211951Z AUTO 07007G23KT 2 1/2SM VCTS -RA BR BKN031 BKN055 OVC100 20/19 A3001 RMK AO2 LTG DSNT E RAB01 TSB18E33 P0066
    KMHE 211953Z AUTO 09005G20KT 4SM VCTS -RA BR FEW004 BKN033 OVC075 21/20 A3001 RMK AO2 LTG DSNT E RAB01 TSB18E33 SLP158 P0066 T02060200
    KMHE 212118Z AUTO 06008G28KT 1/4SM +TSRA FG FEW007 BKN015 OVC100 21/19 A3001 RMK AO2 PK WND 03028/2111 LTG DSNT SW AND W TSB11 P0050 T02110189
    KMHE 212125Z AUTO 09009KT 1/4SM +TSRA FG FEW007 OVC013 21/19 A2999 RMK AO2 PK WND 03028/2111 LTG DSNT W TSB11 P0087 T02060194
  • KONA: Winona Municipal, MN, United States [0.72in]
    KONA 212035Z AUTO 33007KT 3SM RA SCT003 BKN008 OVC013 20/20 A3011 RMK AO2 P0056
    KONA 212055Z AUTO 10003KT 1SM +RA OVC010 20/20 A3010 RMK AO2 P0072
  • KPUC: Price, Carbon County Airport, UT, United States [0.59in]
    KPUC 212116Z AUTO 24017G40KT 1SM +TSRA BKN035 OVC060 16/09 A3014 RMK AO2 PK WND 29040/2110 LTG DSNT NE AND S AND SW P0054 T01560094
    KPUC 212123Z AUTO 23010G29KT 170V290 2SM +TSRA BKN037 OVC065 17/09 A3014 RMK AO2 PK WND 29040/2110 WSHFT 2104 LTG DSNT NE AND E P0057 T01720089
    KPUC 212132Z AUTO 35015G22KT 6SM TSRA BKN040 BKN065 OVC080 14/11 A3013 RMK AO2 PK WND 29040/2110 WSHFT 2104 LTG DSNT NE-S P0059 T01390106
    KPUC 212143Z AUTO 03012G21KT 10SM TS FEW048 SCT055 BKN070 16/12 A3011 RMK AO2 PK WND 29040/2110 WSHFT 2123 LTG DSNT ALQDS RAE43 P0059 T01560117
  • KSPW: Spencer, Spencer Municipal Airport, IA, United States [0.54in]
    KSPW 211835Z AUTO 29011G19KT 3SM -TSRA BKN026 BKN031 OVC049 23/19 A3008 RMK AO2 PK WND 30032/1809 WSHFT 1804 LTG DSNT SE RAB1757 TSB1758E16B17 P0054 T02330194
    KSPW 211843Z AUTO 21004G17KT 10SM VCTS -RA SCT025 BKN031 OVC039 26/20 A3006 RMK AO2 PK WND 30032/1809 WSHFT 1804 LTG DSNT NE AND SE RAB1757 TSB1758E16B17E43 P0054 T02610200
    KSPW 211853Z AUTO 08005KT 10SM VCTS BKN033 BKN046 27/22 A3006 RMK AO2 PK WND 30032/1809 WSHFT 1804 LTG DSNT NE AND E AND W RAB1757E48 TSB1758E16B17E43 SLP171 P0054 T02670217
3 stations reporting 3 or 6 hourly (melted) precip total of 5" or greater

  • MMCT: Chichen-Itza, Mexico [6.15in]
    MMCT 211844Z 05013KT 5SM BKN010 OVC080 27/25 A2988 RMK 60615 8/57/ HZY OCNL DROPS
  • MMCV: Ciudad Victoria Airport, Mexico [15.05in]
    MMCV 211751Z 26005KT 8SM SCT015TCU BKN100 24/24 A3000 RMK SLP/// 57001 941 61505 8/260 DSNT CB NW/NE
  • MMVR: Veracruz / Las Bajadas / General Heriberto Jara, Mexico [9.55in]
    MMVR 211945Z 00000KT 6SM SCT006 BKN010 OVC080 26/26 A2978 RMK 60955 8/77/ RAE43 LWR SC VRB COND
1 station reporting 3 or 6 hourly (melted) precip total of 4-4.99"

  • MMCT: Chichen-Itza, Mexico [4.25in]
    MMCT 211944Z 05006KT 1/2SM RA OVC008 25/24 A2986 RMK 60425 8/7// HZY VRB COND
3 stations reporting 3 or 6 hourly (melted) precip total of 3-3.99"

  • MMCV: Ciudad Victoria Airport, Mexico [3.05in]
    MMCV 211842Z 34007KT 3SM RA BR BKN003 OVC010 25/24 A3000 RMK 60305 8/4// RAB37 BINOVC VRB COND
  • MMPA: Poza Rica / Palizada, Mexico [3.85in]
    MMPA 211748Z 21008KT 4SM RA OVC020CB 27/27 A2988 RMK SLP107 57016 942 60385 8/3// HZY RA INTMNT
    MMPA 211843Z 18008KT 5SM BKN020CB 27/27 A2985 RMK 60355 8/300 HZY ISOL CI
  • MMUN: Cancun Intl Arpt, Mexico [3.25in]
    MMUN 211942Z 13010KT 4SM -RA BKN010CB OVC070 24/24 A2988 RMK 60325 8/37/ VRB COND INTMT RA
3 stations reporting 3 or 6 hourly (melted) precip total of 2-2.99"

  • MMCT: Chichen-Itza, Mexico [2.15in]
    MMCT 212041Z 00000KT 5SM OVC010 25/24 A2984 RMK 60215 8/7// HZY RAE23 OCNL DROPS
  • MMSP: San Luis Potosi, S. L. P., Mexico [2.05in]
    MMSP 212040Z 11011G21KT 4SM -RA SCT010 OVC014 17/15 A3022 RMK SLP115 54000 941 60205 8/8// -RAB40
  • MMUN: Cancun Intl Arpt, Mexico [2.65in]
    MMUN 211846Z 12012KT 6SM FEW015TCU OVC070 29/26 A2988 RMK 60265 8/27/ HZ
    MMUN 212043Z 13012G25KT 2SM RA BKN008CB OVC070 25/25 A2988 RMK SLP115 57019 953 60215 8/36/ VRB COND


0 stations reporting tornado, funnel cloud or waterspout

0 stations reporting mammatus cloud

2 stations reporting hail

  • KSLC: Salt Lake City, Salt Lake City Intl Arpt, UT, United States [unreported size]
    KSLC 211936Z COR VRB06G29KT 4SM TSRAGR HZ FEW037CB OVC085 18/11 A2998 RMK AO2 PK WND 26029/1930 WSHFT 1921 RAB12GRB30 TSB01 RAB12 TSB01 OCNL LTGIC OHD TS OHD MOV NE GR LESS THAN 1/4 CB DSNT SE P0010 T01780111 $
    KSLC 211936Z VRB06G29KT 4SM TSGR HZ FEW037CB OVC085 18/11 A2998 RMK AO2 PK WND 26029/1930 WSHFT 1921 RAB12RAEMMGRB30 TSB01 RAB12 TSB01 OCNL LTGIC OHD TS OHD MOV NE GR LESS THAN 1/4 CB DSNT SE P0010 T01780111 $
  • LIVP: Paganella, Italy [unreported size]
    LIVP 211955Z 19026KT 0000 TSGR FG VV/// 10/10 Q1019
    LIVP 211955Z 19026KT 0000 TSGR FG VV/// 10/10 Q1019 RMK MON INVIS VAL INVIS VIS MAX 791 M VIS MIN 0000
1 station reporting thundersnow

  • KCPW: Pagosa Springs, Wolf Creek Pass, CO, United States
    KCPW 211755Z AUTO 22016G25KT M1/4SM +SN OVC001 07/07 A3067 RMK AO2 LTG DSNT S AND NW
    KCPW 211835Z AUTO 23007G19KT 190V280 M1/4SM +SN OVC001 07/07 A3067 RMK AO2 LTG DSNT N S AND NW
0 stations reporting thundersleet

0 stations reporting thunder with freezing rain

118 stations reporting thunder with rain

  • CYEN: Estevan, Sask., Canada
    CYEN 211837Z AUTO 12007KT 9SM -TSRA OVC071 17/14 A3015 RMK LTNG DIST SE S SLP216 DENSITY ALT 2300FT
  • CYKF: Waterloo Well, Canada
    CYKF 211826Z AUTO 26009KT 9SM -TSRA FEW034 SCT046 SCT076 BKN095 27/22 A3016 RMK LTNG DIST NE SE SLP209 DENSITY ALT 2400FT
  • CYQL: Lethbridge, Alta., Canada
    CYQL 212127Z 12009KT 30SM -TSRA FEW022 SCT050CB BKN080 BKN250 18/12 A3000 RMK CF1CB4AC2CI1 CF TR OCNL LTGCG NW QUAD SLP162 DENSITY ALT 4100FT
  • DBBB: Cotonou, Benin
    DBBB 212000Z 19006KT 9999 -TSRA SCT010 SCT018 FEW022CB 27/25 Q1014
    DBBB 212100Z 20010KT 9999 -TSRA SCT010 SCT018 FEW022CB 27/24 Q1013
  • DFOO: Bobo-Dioulasso, Burkina Faso
    DFOO 211800Z 08014KT 9999 -TSRA FEW020 FEW033CB 23/22 Q1014
    DFOO 211900Z 21004KT 130V250 9999 -TSRA FEW020 FEW033CB 23/22 Q1014
    DFOO 212000Z 15005KT 120V190 9999 -TSRA FEW020 FEW033CB 23/21 Q1013
  • DNMM: Lagos / Ikeja, Nigeria
    DNMM 211800Z 20007KT 4500 -TSRA BKN011 FEW020CB 27/25 Q1014
    DNMM 211900Z 21007KT 5000 -TSRA SCT009 FEW020CB 26/25 Q1013 NOSIG
    DNMM 212000Z 24005KT 5000 -TSRA FEW009 FEW020CB 25/24 Q1014 NOSIG
    DNMM 212100Z 23009KT 5000 -TSRA FEW008 FEW018CB 24/24 Q1013 NOSIG
  • EDDW: Bremen, Germany
    EDDW 211850Z AUTO 18005KT 160V220 9999 TSRA BKN027 BKN046 FEW///CB 19/18 Q1007
  • EDMO: Oberpfaffenhofen, Germany
    EDMO 211750Z 26014KT 230V290 9999 -TSRA FEW040CB BKN054 18/16 Q1016
  • EPPO: Poznan, Poland
    EPPO 212000Z 09008KT 9999 -TSRA BKN055CB 20/19 Q1012
  • EPWR: Wroclaw Ii, Poland
    EPWR 211800Z 14006KT 9999 -TSRA BKN050CB 26/22 Q1011
    EPWR 211830Z 28007KT 210V320 9999 -TSRA BKN048CB 25/22 Q1012 RESHRA
  • EPZG: Zielona Gora, Poland
    EPZG 211800Z 34008KT 9999 -TSRA OVC046CB 22/21 Q1012
    EPZG 211830Z 09010KT 5000 TSRA FEW003 OVC029CB 20/20 Q1011
  • ETHC: Celle, Germany
    ETHC 211820Z 18004KT 3000 TSRA SCT015CB SCT040 22/18 Q1007 YLO
  • GLRB: Grand Bassa, Roberts Field, Liberia
    GLRB 212100Z 10005KT 8000 TSRA FEW005 BKN012 FEW023CB 25/24 Q1013 CB/SW-N
    GLRB 212130Z 00000KT 8000 -TSRA FEW005 BKN012 FEW023CB 25/24 Q1014 CB/SW-N
  • K04V: Saguache, Saguache Municipal Airport, CO, United States
    K04V 211855Z AUTO 34015G26KT 4SM TSRA BKN030 BKN065 BKN100 14/13 A3041 RMK AO2 LTG DSNT NE AND NW
    K04V 212135Z AUTO 00000KT 10SM -TSRA SCT055 SCT065 BKN085 18/11 A3034 RMK AO2 LTG DSNT S AND SW
  • K1CM: Charlie (stanford), MT, United States
    K1CM 211855Z AUTO 05008KT 10SM TSRA OVC075 15/13 A3005 RMK AO2 RAB27 TSB28 SLP170 P0003 T01490131 $
  • K1CN: Charlie (ruso), ND, United States
    K1CN 211944Z AUTO 13008KT 10SM -TSRA BKN028 18/15 A3009 RMK AO2 RAB06 TSB44 SLP194 $
    K1CN 211955Z AUTO 12007KT 10SM -TSRA BKN028 18/15 A3010 RMK AO2 RAB06 TSB44 CIG 028V035 SLP198 P0001 T01770150 $
  • K1EN: Echo (ryder), ND, United States
    K1EN 211947Z AUTO 23008KT 9SM -TSRA OVC019 17/16 M RMK AO2 TSB47 SLPNO $
    K1EN 211955Z AUTO 22008KT 10SM -TSRA OVC021 17/16 M RMK AO2 TSB47 SLPNO P0003 T01690156 $
  • K1HN: Hotel (parshall), ND, United States
    K1HN 211956Z AUTO 07007G17KT 10SM -TSRA FEW010 BKN021 BKN050 OVC070 17/16 A3007 RMK AO2 TSB56 CIG 021V055 BKN021 V SCT SLP191 $
    K1HN 212006Z AUTO 05008KT 10SM -TSRA BKN010 BKN055 OVC070 17/16 A3007 RMK AO2 TSB1956 CIG 010V021 BKN010 V SCT SLP191 $
  • K1LN: Lima (bowbells), ND, United States
    K1LN 211754Z AUTO 11010KT M -TSRA M 16/14 A3012 RMK AO2 RAB15E28RAB31E50RAB53 TSB54 SLP203 RVRNO $
    K1LN 211755Z AUTO 11009KT M -TSRA M 16/14 A3012 RMK AO2 RAB15E28RAB31E50RAB53 TSB54 SLP203 P//// 60003 T01630143 10181 20146 57014 RVRNO $
  • K4B8: UNKNOWN,
    K4B8 212135Z AUTO 00000KT 2 1/2SM -TSRA BR FEW005 OVC070 23/22 A3014 RMK AO2 TSE2103B2124 P0055 T02260220
  • K4BM: Wilkerson Pass, CO, United States
    K4BM 211935Z AUTO 18022G33KT 3SM -TSRA SCT021 BKN035 OVC043 10/07 A3056 RMK AO2 LTG DSNT S AND NW
  • K7BM: Cottonwood Pass, CO, United States
    K7BM 211835Z AUTO 28017G30KT 250V310 5SM TSRA SCT023 BKN038 OVC048 11/06 A3050 RMK AO2 LTG DSNT NE AND E
  • K7L2: Linton, ND, United States
    K7L2 211855Z AUTO 11007G14KT 1 1/4SM TSRA BKN012 BKN032 16/16 A3010 RMK AO2 LTG DSNT ALQDS
  • KAEJ: Central Colorado Regional Airport, CO, United States
    KAEJ 211835Z AUTO 7SM -TSRA BKN060 OVC070 15/09 A3036 RMK AO2 LTG DSNT E THRU SW T01480093
  • KAFF: Air Force Academy, CO, United States
    KAFF 212032Z 27031G39KT 10SM -TSRA SCT070 BKN095CB OVC130 23/08 A3016 RMK AO2A TS OHD SLP111
    KAFF 212032Z COR 27031G39KT 10SM -TSRA SCT070 BKN095CB OVC130 23/08 A3016 RMK AO2A TS 3NE MOV NE SLP111 COR 2034
  • KALB: Albany, Albany Intl Arpt, United States
    KALB 211851Z 29011G16KT 3SM -TSRA SCT040 BKN055CB OVC110 28/21 A3014 RMK AO2 LTG DSNT ALQDS RAB35 TSB27 PRESRR SLP205 OCNL LTGICCG ALQDS MOV E TS ALQDS MOV E P0000 T02780211
    KALB 211851Z COR 29011G16KT 3SM -TSRA SCT040 BKN055CB OVC110 28/21 A3014 RMK AO2 LTG DSNT ALQDS RAB35 TSB27 PRESRR SLP205 OCNL LTGICCG ALQDS TS ALQDS MOV E P0000 T02780211
    KALB 211900Z 21016G33KT 1 1/2SM R01/4000VP6000FT TSRA SCT040 BKN050CB OVC110 23/21 A3018 RMK AO2 PK WND 26033/1855 LTG DSNT ALQDS PRESRR OCNL LTGICCG ALQDS TS ALQDS MOV E P0009 T02330206
    KALB 211928Z 08008KT 3SM -TSRA BR SCT010 BKN022CB OVC038 22/21 A3016 RMK AO2 PK WND 26033/1855 WSHFT 1858 LTG DSNT E-S OCNL LTGICCG VC N-E-SE TS VC N-E-SE MOV E P0032 T02220211
  • KAPA: Denver, Centennial Airport, CO, United States
    KAPA 212053Z 25021G38KT 10SM -TSRA BKN100CB BKN150 20/12 A3016 RMK AO2 PK WND 25038/2048 WSHFT 2032 RAB41 TSB29 SLP152 OCNL LTGICCG OHD TS OHD MOV NE P0000 60000 T02000117 53011
    KAPA 212058Z 21015G31KT 7SM -TSRA BKN100CB BKN150 19/13 A3015 RMK AO2 WSHFT 2040 FRQ LTGICCG OHD TS OHD MOV NE P0002 T01890133
  • KBAF: Westfield, Barnes Municipal Airport, MA, United States
    KBAF 212016Z 36015KT 10SM -TSRA FEW027 BKN060 OVC095 28/24 A3009 RMK AO2 LTG DSNT ALQDS RAB02 TSB10 TS NW P0000 T02780239
    KBAF 212113Z 00000KT 3SM TSRA BR BKN028 OVC100 23/22 A3013 RMK AO2 LTG DSNT ALQDS P0021 T02280217
  • KBDL: Windsor Locks, Bradley Intl Arpt, CT, United States
    KBDL 212028Z 18010KT 1 1/2SM -TSRA BKN038CB BKN050 OVC090 28/22 A3008 RMK AO2 SFC VIS 8 RAB1956 TSB27 OCNL LTGCC S TS S MOV NE P0026 T02780217
    KBDL 212039Z 16011G21KT 10SM -TSRA SCT038CB BKN050 OVC080 27/23 A3009 RMK AO2 RAB1956 TSB27 OCNL LTGCC S TS S MOV NE P0026 T02670233
    KBDL 212048Z 18014KT 10SM -TSRA SCT038CB BKN050 OVC080 26/23 A3008 RMK AO2 WSHFT 2028 RAB1956 TSB27 OCNL LTGCCCG TS S MOV NE P0026
    KBDL 212051Z 18013KT 10SM -TSRA SCT038CB BKN050 OVC080 26/23 A3008 RMK AO2 WSHFT 2028 RAB1956 TSB27 SLP186 OCNL LTGCCCG TS S MOV NE P0026 60033 T02560228 56001
    KBDL 212051Z COR 18013KT 10SM -TSRA SCT038CB BKN050 OVC080 26/23 A3008 RMK AO2 WSHFT 2028 RAB1956 TSB27 SLP186 OCNL LTGCCCG S TS S MOV NE P0026 60033 T02560228 56001
  • KBGM: Binghamton, Binghamton Regional Airport, NY, United States
    KBGM 211936Z 33011G19KT 9SM -TSRA SCT042 SCT050 BKN095 25/18 A3016 RMK AO2 LTG DSNT E AND SE RAB26 TSB30 P0000 T02500178
  • KBIS: Bismarck, Bismarck Municipal Airport, ND, United States
    KBIS 211910Z 11008KT 2SM R31/4500VP6000FT TSRA BR FEW009 BKN014 OVC026 17/17 A3010 RMK AO2 LTG DSNT ALQDS TSB04 P0003 T01720167
  • KBJC: Broomfield / Jeffco, CO, United States
    KBJC 212034Z 28008KT 10SM -TSRA SCT070 OVC100 22/15 A3015 RMK TSB30 TS OHD MOV E
  • KBKF: Aurora, Buckley AFB Airport, CO, United States
    KBKF 212049Z 27015KT 10SM -TSRA BKN100 BKN160 BKN200 27/07 A3011 RMK AO2A SLP117
    KBKF 212058Z 26013KT 10SM -TSRA BKN095 BKN160 BKN200 25/11 A3011 RMK AO2A RAB46 TSB49 SLP120 P0000 60000 T02470113 55002
    KBKF 212103Z 26011KT 10SM -TSRA FEW008 BKN090 BKN160 BKN200 22/13 A3012 RMK AO2A SLP126
  • KCEF: Chicopee Falls / Westover AFB, MA, United States
    KCEF 212001Z 04006KT 10SM -TSRA FEW040 BKN120 BKN170 30/23 A3006 RMK AO2A SLP184
    KCEF 212056Z 34006KT 10SM -TSRA SCT035 BKN075 BKN100 BKN180 26/23 A3006 RMK AO2A SLP184 P0000 60000 T02580229 57011
  • KCOD: Cody, WY, United States
    KCOD 212142Z AUTO 02006KT 9SM -TSRA BKN090 19/12 A3005 RMK AO2 TSB31RAB42 P0000
  • KCOS: Colorado Springs, CO, United States
    KCOS 212050Z 31017G33KT 10SM -TSRA BKN110CB BKN200 22/12 A3016 RMK AO2 PK WND 27039/2032 WSHFT 2030 RAB32 TSB37 OCNL LTGICCG E TS E MOV NE P0003
  • KCPW: Pagosa Springs, Wolf Creek Pass, CO, United States
    KCPW 212135Z AUTO 29015G26KT 5SM TSRA SCT012 SCT024 BKN033 06/05 A3062 RMK AO2 LTG DSNT ALQS P0024
  • KCYS: Cheyenne, Cheyenne Airport, WY, United States
    KCYS 212012Z 11010KT 10SM -TSRA FEW060 FEW090 SCT110 23/11 A3011 RMK AO2 LTG DSNT W-N RAB11 TSB06 P0000 T02330111
  • KD57: Glen Ullin, ND, United States
    KD57 211815Z AUTO 17004KT 2 1/2SM -TSRA OVC005 16/16 A3011 RMK AO2 LTG DSNT ALQDS
    KD57 211835Z AUTO 27004KT 1SM TSRA OVC005 16/16 A3012 RMK AO2 LTG DSNT ALQDS
    KD57 211855Z AUTO 30004KT 1 1/4SM TSRA OVC006 16/16 A3012 RMK AO2 LTG DSNT ALQDS P0031
  • KDET: Detroit, Detroit City Airport, MI, United States
    KDET 212116Z 01008KT 2 1/2SM TSRA SCT045 BKN060 OVC095 28/23 A3011 RMK AO2 RAB09 TSB10 TS N MOV E P0002 T02830233
    KDET 212123Z 03006KT 5SM -TSRA SCT045 BKN065 OVC095 28/24 A3011 RMK AO2 RAB09 TSB10 TS N MOV E P0002 T02830244
  • KDIK: Dickinson, Dickinson Municipal Airport, ND, United States
    KDIK 211814Z AUTO 07007KT 2 1/2SM TSRA BR FEW008 BKN046 OVC085 14/14 A3009 RMK AO2 LTG DSNT NE AND E TSE03B08 P0005 T01440144
  • KEAN: Phifer Airfield, WY, United States
    KEAN 212055Z AUTO 34003KT 10SM -TSRA SCT060 BKN070 BKN085 25/13 A3007 RMK AO2 LTG DSNT S THRU N T02480132
    KEAN 212115Z AUTO 06004G17KT 4SM -TSRA SCT019 BKN065 OVC085 20/14 A3006 RMK AO2 LTG DSNT ALQS P0008 T02010141
    KEAN 212135Z AUTO 05007KT 10SM -TSRA SCT019 BKN055 OVC090 19/16 A3005 RMK AO2 LTG DSNT N AND S P0009 T01940155
  • KELM: Elmira, Elmira / Corning Regional Airport, NY, United States
    KELM 212122Z 35004KT 10SM -TSRA SCT013 SCT070 BKN090 22/21 A3014 RMK AO2 PK WND 27036/2057 LTG DSNT SE P0060 T02220206
  • KELZ: Wellsville, Wellsville Municipal Airport, NY, United States
    KELZ 211904Z AUTO 34012G18KT 7SM -TSRA FEW024 OVC038 23/21 A3025 RMK AO2 LTG DSNT N AND NW TSB02 P0000 T02280211
    KELZ 211925Z AUTO 26006KT 3SM TSRA BR FEW036 SCT055 OVC100 21/19 A3024 RMK AO2 LTG DSNT NE AND E TSB02 P0006 T02110194
  • KEST: Estherville, IA, United States
    KEST 212049Z AUTO 01004KT 9SM -TSRA FEW060 SCT080 BKN120 24/21 A3006 RMK AO2 RAB40 TSB49 P0001
    KEST 212052Z AUTO 36004KT 10SM -TSRA SCT060 SCT075 BKN090 24/21 A3006 RMK AO2 RAB40 TSB49 SLP175 P0001 60001 T02390211 55013
    KEST 212112Z AUTO 1SM TSRA SCT020 BKN035 OVC120 22/18 A3003 RMK AO2 PK WND 14028/2102 LTG DSNT SW P0058 T02220183
    KEST 212114Z AUTO 11006KT 2SM -TSRA SCT020 BKN060 OVC120 23/19 A3003 RMK AO2 PK WND 14028/2102 LTG DSNT SW P0058 T02280189
  • KEVW: Evanston, WY, United States
    KEVW 212036Z AUTO 23011G26KT 210V270 10SM -TSRA BKN090 OVC110 18/04 A3017 RMK AO2 PK WND 27026/2031 LTG DSNT ALQDS RAB33 TSB30 PRESRR P0000 T01830044
    KEVW 212053Z AUTO 23014G38KT 2 1/2SM -TSRA SCT044 BKN075 OVC090 14/07 A3021 RMK AO2 PK WND 25038/2045 LTG DSNT E AND S RAB33 TSB30E45B47 SLP151 P0011 60011 T01390067 53014
    KEVW 212058Z AUTO 25014G22KT 10SM -TSRA FEW044 BKN075 OVC090 14/07 A3021 RMK AO2 LTG DSNT E AND S P0000 T01440067
  • KFBR: Fort Bridger, WY, United States
    KFBR 212115Z AUTO 24006KT 10SM -TSRA SCT060 OVC070 15/10 A3024 RMK AO2 LTG DSNT ALQS T01540100
  • KFMN: Farmington, Four Corners Regional Airport, NM, United States
    KFMN 212141Z 01011G26KT 340V060 10SM -TSRA OVC095 24/12 A3005 RMK AO2 PK WND 31026/2138 LTG DSNT NE AND S AND SW RAB21 TSB35 P0000 T02440122
  • KGRB: Green Bay, Austin Straubel Intl Arpt, WI, United States
    KGRB 211835Z 04006KT 4SM TSRA BR OVC019 18/17 A3018 RMK AO2 LTG DSNT S AND SW RAB08 TSB29 P0006 T01830167
  • KHFD: Hartford, Hartford-Brainard Airport, CT, United States
    KHFD 212013Z 30007KT 1 3/4SM TSRA FEW048 BKN060 OVC095 29/22 A3009 RMK AO2 LTG DSNT ALQDS RAB1959 FRQ LTGICCG W TS OHD MOV E P0008 T02890222
    KHFD 212023Z 30007G17KT 3SM -TSRA SCT046 BKN060 OVC090 25/22 A3008 RMK AO2 LTG DSNT ALQDS RAB1959 FRQ LTGICCG W TS OHD MOV E P0010 T02500217
  • KHVR: Havre, Havre City-County Airport, MT, United States
    KHVR 212059Z AUTO 07009KT 8SM -TSRA BKN070 OVC090 17/11 A3003 RMK AO2 RAB57 TSB59 P0000 T01670111
  • KHZE: Hazen, ND, United States
    KHZE 211835Z AUTO 00000KT 4SM -TSRA OVC014 17/17 A3012 RMK AO2 LTG DSNT S AND SW
  • KIJD: Willimantic, Windham Airport, CT, United States
    KIJD 212052Z AUTO 6SM -TSRA SCT033 BKN041 OVC050 30/23 A3008 RMK AO2 LTG DSNT E AND W AND NW RAB50 TSB52 SLP183 P0003 60003 T03000233 56016
    KIJD 212125Z AUTO VRB05G22KT 7SM -TSRA BKN027 OVC033 26/22 A3010 RMK AO2 LTG DSNT ALQDS P0003 T02560222
  • KLBF: North Platte, NE, United States
    KLBF 212106Z AUTO 10008G51KT 1 1/4SM -TSRA FEW021 OVC065 24/17 A2989 RMK AO2 PK WND 12051/2059 LTG DSNT ALQDS RAB2054 TSB00 P0013 T02440167
    KLBF 212108Z AUTO 08009G51KT 2 1/2SM -TSRA FEW021 BKN065 OVC090 24/17 A2989 RMK AO2 PK WND 12051/2059 LTG DSNT ALQDS RAB2054 TSB00 P0013 T02390167
    KLBF 212115Z AUTO VRB03KT 5SM -TSRA FEW021 OVC065 23/17 A2994 RMK AO2 PK WND 12051/2059 LTG DSNT ALQDS RAB2054 TSB00 PRESRR P0013 T02280172
  • KLND: Lander, WY, United States
    KLND 212107Z AUTO 32022G45KT 10SM -TSRA BKN070 BKN080 18/11 A3002 RMK AO2 PK WND 30045/2101 LTG DSNT ALQDS RAB06 TSB01 P0000 T01830111
    KLND 212124Z AUTO 22022G28KT 2 1/2SM TSRA SCT060 BKN075 OVC090 14/10 A3004 RMK AO2 PK WND 30045/2101 WSHFT 2106 LTG DSNT ALQDS RAB06 TSB01E16B19 P0003 T01440100
    KLND 212132Z AUTO 21018G28KT 3SM -TSRA SCT060 OVC070 14/09 A3004 RMK AO2 PK WND 30045/2101 WSHFT 2114 LTG DSNT NE-S RAB06 TSB01E16B19 P0009 T01390094
  • KLNR: Lone Rock, Tri-County Regional Airport, WI, United States
    KLNR 212113Z AUTO 29007G15KT 7SM -TSRA SCT033 BKN048 OVC080 24/21 A3008 RMK AO2 LTG DSNT NW-E RAB04 TSB10 P0004 T02390211
  • KLVS: Las Vegas, Las Vegas Municipal Airport, NM, United States
    KLVS 212049Z AUTO 17015G25KT 10SM -TSRA FEW016 BKN080 OVC095 18/16 A3034 RMK AO2 PK WND 16026/2009 LTG DSNT W TSB43 P0002
    KLVS 212053Z AUTO 17016KT 10SM -TSRA FEW018 BKN080 OVC095 18/16 A3034 RMK AO2 PK WND 16026/2009 TSB43 SLP180 P0003 60004 T01780156 55002
  • KMCW: Mason City, Mason City Municipal Airport, IA, United States
    KMCW 212108Z AUTO 29022G29KT 2 1/2SM TSRA BR BKN044 BKN055 BKN080 24/22 A3007 RMK AO2 PK WND 28029/2108 VIS 1V5 LTG DSNT SW RAB05 TSB06 PRESRR P0005 T02440222
  • KMGJ: Montgomery, Orange County Airport, NY, United States
    KMGJ 212026Z AUTO 02016G24KT 10SM -TSRA SCT060 BKN090 OVC110 25/21 A3011 RMK AO2 LTG DSNT NW-E RAB26 TSB20 P0000 T02500206
    KMGJ 212106Z AUTO 30013G21KT 2SM TSRA BR FEW027 BKN048 OVC070 22/21 A3014 RMK AO2 LTG DSNT ALQDS TSB00 PRESRR P0011 T02220211
    KMGJ 212121Z AUTO 09003KT 1 1/2SM -TSRA BR SCT027 BKN048 OVC120 22/21 A3011 RMK AO2 LTG DSNT ALQDS TSB00 P0041 T02170211
    KMGJ 212123Z AUTO 07003KT 3SM -TSRA BR SCT027 BKN048 OVC120 22/21 A3010 RMK AO2 LTG DSNT ALQDS TSB00 P0041 T02170211
  • KMHE: Mitchell, Mitchell Municipal Airport, SD, United States
    KMHE 212111Z AUTO 02014G28KT 1 1/2SM -TSRA BR SCT008 BKN021 OVC090 21/20 A3001 RMK AO2 PK WND 03028/2111 LTG DSNT SW AND W TSB11 P0015 T02110200
    KMHE 212141Z AUTO 14013KT 2 1/2SM TSRA BR BKN015 BKN055 OVC090 21/19 A2994 RMK AO2 PK WND 03028/2111 VIS 1V5 LTG DSNT NE AND E AND W TSB11 PRESFR P0110 T02060189
  • KMSN: Madison, Dane County Regional-Truax Field, WI, United States
    KMSN 212031Z 30013G23KT 250V360 7SM -TSRA BKN025CB BKN050 BKN250 24/21 A3009 RMK AO2 PK WND 30030/2018 WSHFT 2016 LTG DSNT NW-NE RAB21 FRQ LTGIC OHD TS OHD MOV NE P0001 T02390211
    KMSN 212037Z VRB04G23KT 7SM -TSRA SCT025CB BKN055 BKN250 24/21 A3008 RMK AO2 PK WND 30030/2018 WSHFT 2016 LTG DSNT NW-NE RAB21 FRQ LTGICCG N-SE TS N-SE MOV E P0001 T02390206
    KMSN 212138Z 03014G18KT 3SM R36/2400VP6000FT -TSRA BR FEW017 BKN033CB OVC060 23/21 A3007 RMK AO2 LTG DSNT ALQDS RAB11 FRQ LTGIC N-NE TS N-NE MOV NE P0016 T02280211
  • KMTC: Selfridge ANG Base, MI, United States
    KMTC 212138Z 19009KT 2 1/2SM TSRA BKN043CB BKN065 OVC150 27/23 A3008 RMK AO2A OCNL LTGICCG OHD TSB29 TS OHD MOV E SLP188 $
  • KMTW: Manitowoc Municipal, WI, United States
    KMTW 211956Z AUTO 14011KT 9SM -TSRA FEW012 BKN034 OVC043 18/17 A3015 RMK AO2 LTG DSNT NE AND E TSB05RAB18 SLP210 P0014 T01780172
  • KOLE: Olean Municipal, NY, United States
    KOLE 211815Z AUTO 20009KT 5SM TSRA SCT013 BKN040 OVC055 20/20 A3027 RMK AO2 LTG DSNT ALQS
  • KOVS: Boscobel, Boscobel Airport, WI, United States
    KOVS 212023Z AUTO VRB03G20KT 3SM -TSRA FEW015 BKN047 OVC060 25/21 A3006 RMK AO2 LTG DSNT E AND NW RAB07 P0007 T02500211
  • KPEO: Penn Yan, Penn Yan Airport, NY, United States
    KPEO 211803Z AUTO 17013G26KT 2 1/2SM TSRA FEW021 BKN029 OVC040 23/20 A3019 RMK AO2 PK WND 17026/1759 VIS 3/4V5 LTG DSNT SE RAB1758 P0010 T02280200
    KPEO 211820Z AUTO 11009KT 2 1/2SM -TSRA FEW022 BKN030 OVC100 23/20 A3018 RMK AO2 PK WND 17026/1759 WSHFT 1752 LTG DSNT S AND NW RAB1758 P0029 T02280200
    KPEO 211822Z AUTO 10009KT 4SM -TSRA BR BKN028 BKN055 OVC100 22/20 A3018 RMK AO2 PK WND 17026/1759 WSHFT 1752 LTG DSNT S AND NW RAB1758 P0029 T02220200
    KPEO 211831Z AUTO 09004KT 10SM -TSRA SCT030 BKN070 OVC100 22/19 A3018 RMK AO2 PK WND 17026/1759 WSHFT 1752 LTG DSNT NW RAB1758 P0029 T02220194
  • KPGA: Page, Page Municipal Airport, AZ, United States
    KPGA 212104Z AUTO 12007KT 10SM -TSRA 23/18 A2997 RMK AO2 LTG DSNT ALQDS RAB2008E2026B2058 TSB2006E2024B2058 P0001 T02330178 $
  • KPHD: New Philadelphia, Harry Clever Field, OH, United States
    KPHD 212117Z AUTO 19007KT 10SM -TSRA FEW036 SCT070 BKN090 31/23 A3013 RMK AO2 LTG DSNT N AND NE RAB03 TSB11 P0000 T03060228
  • KPOU: Poughkeepsie, Dutchess County Airport, NY, United States
    KPOU 212037Z VRB04KT 2 1/2SM -TSRA BR SCT034 BKN048 OVC060 23/22 A3010 RMK AO2 PK WND 02031/1957 WSHFT 1942 LTG DSNT ALQDS RAB15 TSB37 P0016 T02280217
    KPOU 212053Z 04006KT 2 1/2SM -TSRA BR FEW036 BKN060 OVC095 23/22 A3010 RMK AO2 PK WND 02031/1957 WSHFT 1942 LTG DSNT ALQDS RAB15 TSB37 SLP188 P0021 60021 T02280217 53004
    KPOU 212114Z 11005KT 1SM -TSRA BR FEW006 BKN034 OVC090 23/22 A3009 RMK AO2 LTG DSNT ALQDS P0017 T02280217
    KPOU 212119Z 13004KT 3SM -TSRA BR FEW004 BKN034 BKN070 23/22 A3009 RMK AO2 LTG DSNT SE-W P0017 T02280217
  • KPSF: Pittsfield, Pittsfield Municipal Airport, MA, United States
    KPSF 212001Z AUTO 28014G21KT 2 1/2SM TSRA BR SCT055 BKN070 OVC100 23/22 A3018 RMK AO2 LTG DSNT ALQDS TSB01 P0002 T02330217
    KPSF 212028Z AUTO VRB03KT 2 1/2SM TSRA BR BKN018 BKN042 OVC090 21/20 A3018 RMK AO2 WSHFT 1955 LTG DSNT NE-SE TSB01 P0019 T02110200
  • KPUC: Price, Carbon County Airport, UT, United States
    KPUC 212040Z AUTO 32022G38KT 1 1/2SM -TSRA FEW025 BKN055 BKN065 15/09 A3015 RMK AO2 PK WND 30039/2037 WSHFT 1943 LTG DSNT SW-N RAB39 TSB31 P0007 T01500089
    KPUC 212132Z AUTO 35015G22KT 6SM TSRA BKN040 BKN065 OVC080 14/11 A3013 RMK AO2 PK WND 29040/2110 WSHFT 2104 LTG DSNT NE-S P0059 T01390106
  • KPVD: Providence, RI, United States
    KPVD 211940Z 14010G26KT 4SM R05/2000VP6000FT -TSRA BR BKN028 BKN040CB 25/23 A3012 RMK AO2 PK WND 21026/1933 WSHFT 1923 LTG DSNT SW AND W RAB35 OCNL LTGICCG OHD AND S-W TS OHD AND S-W MOV E P0000 T02500233
    KPVD 211942Z 11016G30KT 1/2SM R05/2000VP6000FT -TSRA BR FEW017 OVC028CB 25/23 A3012 RMK AO2 PK WND 09030/1942 WSHFT 1923 SFC VIS 3/4 LTG DSNT SW AND W RAB35 OCNL LTGICCG OHD AND ALQDS TS OHD AND ALQDS MOV E P0004 T02500233
    KPVD 211951Z VRB03G30KT 1SM R05/3500VP6000FT -TSRA BKN025CB BKN085 24/21 A3013 RMK AO2 PK WND 09030/1942 WSHFT 1923 SFC VIS 3 LTG DSNT SW AND W RAB35 SLP203 OCNL LTGICCG N-E-S TS N-E-S MOV E P0038 T02440211
    KPVD 212003Z 00000KT 3SM -TSRA BR BKN028CB BKN085 24/23 A3012 RMK AO2 LTG DSNT W AND NW OCNL LTGIC N-E-S TS N-E-S MOV E P0005 T02440228
    KPVD 212038Z 16003KT 7SM -TSRA FEW021 BKN045CB BKN110 24/23 A3013 RMK AO2 LTG DSNT SW AND W OCNL LTGIC SW-W TS SW-W MOV E P0005 T02440228
    KPVD 212051Z 09003KT 3SM -TSRA BR SCT043CB BKN090 BKN110 24/23 A3013 RMK AO2 LTG DSNT W SLP200 OCNL LTGIC SW-W TS SW-W MOV E P0014 60052 T02440233 56001
  • KRIW: Riverton, Riverton Regional Airport, WY, United States
    KRIW 212100Z AUTO 29015G20KT 9SM -TSRA SCT060 BKN080 OVC110 22/11 A3005 RMK AO2 LTG DSNT SW-N TSB2054 PRESRR P0000 T02170111
    KRIW 212115Z AUTO 35018G29KT 2 1/2SM TSRA FEW023 BKN070 OVC085 16/12 A3004 RMK AO2 PK WND 27049/2103 LTG DSNT NE AND S AND SW TSB2054 P0018 T01560117
    KRIW 212117Z AUTO 34021G30KT 5SM -TSRA FEW023 BKN065 OVC080 15/12 A3004 RMK AO2 PK WND 27049/2103 WSHFT 2103 LTG DSNT NE AND S AND SW TSB2054 P0018 T01500117
  • KRKS: Rock Springs, WY, United States
    KRKS 211935Z AUTO 33006KT 10SM -TSRA BKN065 17/09 A3011 RMK AO2 LTG DSNT NE AND SW AND W RAB04 TSB29 P0000 T01670094
    KRKS 211954Z AUTO 30013G18KT 10SM -TSRA BKN065 OVC080 17/09 A3011 RMK AO2 LTG DSNT NE RAB04 TSB29E44B53 SLP123 P0001 T01720094
  • KRYV: Watertown, WI, United States
    KRYV 212135Z AUTO 00000KT 10SM -TSRA SCT032 SCT038 OVC070 24/20 A3009 RMK AO2 LTG DSNT ALQS P0002 T02440204
  • KSEG: Selinsgrove, Penn Valley Airport, PA, United States
    KSEG 212119Z AUTO 13010G17KT 2SM -TSRA FEW010 SCT065 BKN090 29/23 A3008 RMK AO2 RAB10 TSB15 P0013 T02940228
  • KSGJ: St. Augustine, St. Augustine Airport, FL, United States
    KSGJ 212112Z 32004KT 6SM -TSRA BR BKN014 BKN021 OVC037 26/25 A3003 RMK AO2 TSB11 PNO $
    KSGJ 212119Z 00000KT 8SM -TSRA SCT014 BKN022 OVC035 26/25 A3003 RMK AO2 TSB11 PNO $
    KSGJ 212129Z 23003KT 9SM -TSRA SCT009 BKN013 OVC019 26/25 A3003 RMK AO2 LTG DSNT SE AND SW TSB11 PNO $
  • KSLC: Salt Lake City, Salt Lake City Intl Arpt, UT, United States
    KSLC 211936Z COR VRB06G29KT 4SM TSRAGR HZ FEW037CB OVC085 18/11 A2998 RMK AO2 PK WND 26029/1930 WSHFT 1921 RAB12GRB30 TSB01 RAB12 TSB01 OCNL LTGIC OHD TS OHD MOV NE GR LESS THAN 1/4 CB DSNT SE P0010 T01780111 $
    KSLC 211948Z 11008KT 7SM -TSRA SCT029CB BKN085 19/13 A2996 RMK AO2 PK WND 26029/1930 WSHFT 1921 RAB12 TSB01 OCNL LTGIC NE TS NE MOV NE GRB30E43 CB DSNT SE P0031 $
  • KSPW: Spencer, Spencer Municipal Airport, IA, United States
    KSPW 211758Z AUTO 21004KT 10SM -TSRA BKN028 BKN041 OVC055 28/22 A3008 RMK AO2 RAB57 TSB58 P0000 T02830217
    KSPW 211808Z AUTO 30017G31KT 9SM TSRA SCT026 BKN032 OVC055 24/20 A3008 RMK AO2 PK WND 31031/1808 RAB1757 TSB1758 P0002 T02440200
    KSPW 211835Z AUTO 29011G19KT 3SM -TSRA BKN026 BKN031 OVC049 23/19 A3008 RMK AO2 PK WND 30032/1809 WSHFT 1804 LTG DSNT SE RAB1757 TSB1758E16B17 P0054 T02330194
  • KY19: Mandan, ND, United States
    KY19 211915Z AUTO 11007G12KT 1 3/4SM TSRA OVC003 16/17 A3011 RMK AO2 LTG DSNT N AND E AND SW
  • LFLP: Annecy/meythet, France
    LFLP 212100Z AUTO 14003KT 090V170 9000 -TSRA FEW023/// BKN070/// OVC088/// ///CB 15/13 Q1020
  • LFLS: Grenoble / St. Geoirs, France
    LFLS 211900Z AUTO 34011KT 9999 TSRA FEW034/// BKN042/// BKN056/// //////CB 17/13 Q1019
    LFLS 211900Z AUTO 34011KT 9999 TSRA FEW034/// BKN042/// BKN056/// ///CB 17/13 Q1019
  • LIMC: Milano / Malpensa, Italy
    LIMC 211750Z 22014KT 8000 -TSRA SCT020CB BKN050 21/16 Q1013
  • LIME: Bergamo / Orio Al Serio, Italy
    LIME 211750Z 11008KT 090V160 3000 TSRA SCT025CB BKN050 26/22 Q1010
    LIME 211750Z 11008KT 090V160 4000 TSRA BR SCT025CB BKN050 26/22 Q1010 NOSIG
    LIME 211820Z 28018KT 250V320 8000 R28/1100U TSRA SCT025CB BKN040 20/19 Q1011
  • LIMN: Novara / Cameri, Italy
    LIMN 211755Z 15005KT 9999 TSRA BKN025CB SCT030 22/18 Q1012
    LIMN 211755Z 15005KT 9999 TSRA BKN025CB SCT030 22/18 Q1012 RMK OVC VIS MIN 9999 BLU
  • LIPB: Bolzano, Italy
    LIPB 211958Z VRB02KT 7000 TSRA SCT050CB SCT090 24/19 Q1008
    LIPB 212050Z VRB07KT 6000 -TSRA FEW020CB SCT040 BKN110 19/18 Q1013
  • LIPX: Verona / Villafranca, Italy
    LIPX 211920Z 15005KT 120V190 9999 -TSRA SCT020CB BKN050 25/21 Q1010
  • LIVE: Resia Pass, Italy
    LIVE 211755Z 00000KT 9999 -TSRA FEW020CB BKN025 18/13 Q1015
    LIVE 211755Z 00000KT 9999 -TSRA FEW020CB BKN025 18/13 Q1015 RMK OVC VIS MIN 9999
    LIVE 211855Z 01004KT 9999 -TSRA FEW020CB SCT022 BKN025 16/13 Q1015
    LIVE 211855Z 01004KT 9999 -TSRA FEW020CB SCT022 BKN025 16/13 Q1015 RMK OVC VIS MIN 9999
    LIVE 211955Z 06005G28KT 9999 -TSRA SCT020CB BKN022 15/12 Q1018
    LIVE 211955Z 06005G28KT 9999 -TSRA SCT020CB BKN022 15/12 Q1018 RMK OVC VIS MIN 9999
  • LIVP: Paganella, Italy
    LIVP 211925Z 18017KT 0000 TSRA FG VV/// 12/12 Q1020 RMK MON INVIS VAL INVIS VIS MIN 0000
  • LKTB: Brno / Turany, Czech Republic
    LKTB 211830Z 34010KT 300V010 8000 4000NE TSRA FEW008 BKN034CB 19/18 Q1013 NOSIG
    LKTB 211900Z VRB06KT 9999 -TSRA FEW003 BKN047CB 21/20 Q1012
  • LOWI: Innsbruck-Flughafen, Austria
    LOWI 211750Z 08004KT 030V110 9999 -TSRA SCT080 FEW080CB BKN110 23/16 Q1012
    LOWI 211850Z VRB02KT 9999 -TSRA FEW050 SCT070 FEW070CB BKN080 20/18 Q1012
    LOWI 211950Z 14011KT 090V190 8000 -TSRA FEW015 SCT050 FEW050CB BKN070 17/13 Q1014
    LOWI 212050Z 21015KT 180V240 6000 TSRA FEW015 BKN030 FEW030CB 13/12 Q1019
  • LSZG: Grenchen, Switzerland
    LSZG 211750Z 23006KT 190V290 9999 -TSRA FEW030 SCT060CB BKN070 17/16 Q1016
    LSZG 211950Z AUTO VRB03KT 9999 -TSRA FEW048CB SCT055 16/16 Q1017 RERA
    LSZG 212020Z AUTO VRB02KT 9999 -TSRA SCT045CB BKN050 16/16 Q1017 RETS
  • LSZS: Samedan, Switzerland
    LSZS 211850Z AUTO 18025KT 6000 TSRA BKN060CB SCT070 11/09 Q1018 RERA
  • MDCY: El Catey, Dominican Republic
    MDCY 211800Z 09005KT 8000 -TSRA FEW016CB BKN017 BKN300 28/26 Q1016 CB/SW/W
    MDCY 211900Z 00000KT 8000 -TSRA FEW016CB BKN017 BKN300 28/26 Q1016 CB/W/NW/N
  • MDJB: Dr. Balaguer Intl, Dominican Republic
    MDJB 211800Z 36007KT 7000 -TSRA SCT016CB SCT018 26/23 Q1015 CB/ALL QDS
  • MKJS: Montego Bay / Sangster, Jamaica
    MKJS 211900Z 07014KT 9999 -TSRA FEW018 SCT022CB BKN030 30/26 Q1013
    MKJS 212000Z 15014KT 9999 -TSRA FEW018 BKN020CB 24/22 Q1013 RERA
  • MPDA: David, Panama
    MPDA 212000Z 18008KT 150V210 7000 TSRA FEW005 SCT015CB SCT080 28/25 Q1009
    MPDA 212100Z 19006KT 7000 -TSRA FEW004 SCT015CB BKN080 27/25 Q1009
  • MROC: Juan Santamaria, Costa Rica
    MROC 212132Z 23008KT 5000 2000SW -TSRA BR SCT010CB BKN035 23/22 A3000 NOSIG
  • MUCL: Cayo Largo Del Sur, Cuba
    MUCL 211850Z 11012KT 080V140 8000 -TSRA BKN015CB OVC060 29/26 Q1015
  • MUVR: Varadero, Matanzas, Cuba
    MUVR 212114Z 05016KT 4500 1500SW TSRA FEW018CB BKN020 23/23 Q1015 RMK CB AT I II III AND OVER AD
    MUVR 212114Z 05016KT 4500 1500SW TSRA FEW018CB BKN020 23/23 Q1015 RMK CB AT I/II/III AND OVER AD
  • OITT: Tabriz, Iran
    OITT 211800Z 10004KT 9999 -TSRA FEW030 SCT032CB BKN080 26/09 Q1013 A2993
  • PATA: Tanana, Calhoun Memorial Airport, AK, United States
    PATA 212052Z 01009KT 10SM TSRA SCT055 23/ A2987 RMK AO2 RAB41 SLPNO OCNL LTGCC OHD MOV NE VIRGA N NE TCU NW N NE E VCSH NE 6//// T0233 58004 PNO $
  • RJFM: Miyazaki Airport, Japan
    RJFM 212100Z AUTO VRB01KT 9999 -TSRA FEW006 SCT008 OVC013 //////CB 23/23 Q1006
    RJFM 212116Z AUTO VRB01KT 9000 -TSRA FEW006 SCT008 OVC011 //////CB 23/22 Q1006 RMK A2972 TS 20KM S MOV E CB 35KM SE MOV N
    RJFM 212126Z AUTO 19001KT 4800 -TSRA BR BKN009 OVC011 //////CB 23/22 Q1006 RMK A2972 TS 20KM S MOV E
    RJFM 212128Z AUTO VRB01KT 9000 TSRA BKN008 OVC011 //////CB 23/22 Q1006 RMK A2972 RI004 TS 20KM S MOV E
  • SBBG: Bage Aeroporto, Brazil
    SBBG 211800Z 01014KT 2000 -TSRA BKN026 FEW030CB BKN070 17/16 Q1010
  • SKBQ: Barranquilla / Ernestocortissoz, Colombia
    SKBQ 212127Z 06007KT 210V320 9999 TSRA BKN015CB 26/23 Q1009
  • SMZO: Paramaribo, Suriname
    SMZO 211930Z 06006KT 9999 -TSRA SCT012 FEW015CB SCT025 27/25 Q1010 NOSIG
    SMZO 212000Z 08004KT 9999 -TSRA SCT010 FEW015CB SCT020 26/25 Q1010
  • UBBG: Gyanca Airport, Azerbaijan
    UBBG 212130Z 27006KT 250V310 9999 -TSRA SCT040CB BKN100 23/18 Q1010 NOSIG
  • UGKO: Kopitnari, Georgia
    UGKO 211830Z 12005KT 070V220 9999 TSRA BKN020CB OVC050 20/19 Q1012 NOSIG
  • URML: Uytash, Russia
    URML 211800Z 25004MPS 9999 -TSRA SCT063CB 22/19 Q1010 R32/290260 NOSIG RMK QFE757/1009
    URML 211830Z 22004MPS 9999 -TSRA SCT///CB 21/19 Q1010 R14/290260 NOSIG RMK QFE757/1010
  • USPP: Perm'/Bolshoe Savino, Russia
    USPP 211800Z 26003MPS 240V300 9999 -TSRA BKN033CB 18/17 Q0999 R21/290350
  • UTNN: Nukus / Karakalpakstan, Uzbekistan
    UTNN 211900Z 18004KT 9999 -TSRA FEW050CB 28/15 Q1002 R33/CLRD60 NOSIG
    UTNN 211930Z 25016G26KT 9999 -TSRA FEW050CB 25/16 Q1003 R33/CLRD60 NOSIG
    UTNN 212000Z 29012KT 9999 -TSRA FEW050CB 25/16 Q1002 R33/CLRD60 NOSIG
  • UWKE: Begishevo, Russia
    UWKE 211745Z 34004MPS 5000 -TSRA SCT013 OVC043CB 17/17 Q1001 R03/210355 NOSIG RMK QFE734/0979
    UWKE 211800Z 36005MPS 9999 -TSRA SCT013 OVC043CB 18/18 Q1000 RETSRA R03/210355 NOSIG RMK QFE734/0978
  • VRMM: Male, Maldives
    VRMM 212100Z 23014KT 6000 -TSRA SCT017 FEW018CB BKN270 29/26 Q1008 RETS CB N ENE OVERHEAD
  • VVPQ: Phu Quoc, Viet Nam
    VVPQ 212030Z 26013KT 8000 -TSRA SCT015 FEW017CB SCT040 26/25 Q1005 NOSIG
    VVPQ 212100Z 29013KT 8000 -TSRA SCT015 FEW017CB SCT040 25/24 Q1005 NOSIG
    VVPQ 212130Z 29013KT 8000 -TSRA SCT015 FEW017CB SCT040 25/24 Q1005 NOSIG
  • WMKJ: Johore Bharu / Senai, Malaysia
    WMKJ 211905Z 27008KT 150V300 6000 TSRA FEW008 FEW016CB 24/23 Q1010
    WMKJ 212000Z 28006KT 210V010 6000 TSRA FEW008 FEW016CB SCT020 24/23 Q1010
    WMKJ 212000Z 28006KT 210V010 6000 TSRA FEW016CB SCT020 24/23 Q1010
    WMKJ 212100Z VRB04KT 5000 TSRA FEW010 FEW016CB SCT020 24/23 Q1010
  • WMKK: Sepang/KL Intl Arpt, Malaysia
    WMKK 211800Z 33004KT 250V060 5000 TSRA FEW006 FEW016CB SCT028 24/23 Q1011
    WMKK 211830Z 34004KT 260V020 6000 TSRA FEW006 FEW016CB SCT028 24/23 Q1011 NOSIG
  • ZUGY: Guiyang, China
    ZUGY 211800Z 02002MPS 4000 TSRA BR FEW008 SCT016 FEW030CB OVC033 22/22 Q1008
    ZUGY 211900Z 25005MPS 190V320 7000 -TSRA FEW004 SCT016 FEW030CB OVC033 22/22 Q1009 RESHRA
    ZUGY 212000Z 22004MPS 190V260 5000 TSRA BR FEW004 SCT016 FEW023CB OVC030 20/20 Q1008
    ZUGY 212100Z 20003MPS 9999 -TSRA FEW004 SCT016 FEW023CB OVC030 20/20 Q1009 RESHRA NOSIG
  • ZYCC: Changchun, China
    ZYCC 211900Z 08003MPS 4000 -TSRA BR SCT003 FEW020CB BKN020 18/18 Q0998 RESHRA
    ZYCC 212000Z 13002MPS 080V160 3000 TSRA BR SCT003 FEW020CB BKN020 18/17 Q0997 NOSIG


0 stations reporting blizzard conditions

0 stations reporting near-blizzard conditions


1 station reporting visibility of zero

  • LIVP: Paganella, Italy
    LIVP 211855Z 17014KT 0000 FG VV/// 13/13 Q1020
    LIVP 211855Z 17014KT 0000 FG VV/// 13/13 Q1020 RMK MON INVIS VAL INVIS VIS MIN 0000
    LIVP 211925Z 18017KT 0000 TSRA FG VV/// 12/12 Q1020 RMK MON INVIS VAL INVIS VIS MIN 0000
    LIVP 211955Z 19026KT 0000 TSGR FG VV/// 10/10 Q1019
    LIVP 211955Z 19026KT 0000 TSGR FG VV/// 10/10 Q1019 RMK MON INVIS VAL INVIS VIS MAX 791 M VIS MIN 0000
    LIVP 212055Z 19014KT 0000 FG VV/// 10/09 Q1021 RETS
    LIVP 212055Z 19014KT 0000 FG VV/// 10/09 Q1021 RETS RMK MON INVIS VAL INVIS VIS MIN 0000
15 stations reporting visibility 1/8 mile or less, but not zero

  • KCPW: Pagosa Springs, Wolf Creek Pass, CO, United States [<1/4mile]
    KCPW 211755Z AUTO 22016G25KT M1/4SM +SN OVC001 07/07 A3067 RMK AO2 LTG DSNT S AND NW
    KCPW 211815Z AUTO 22016G25KT M1/4SM SN OVC001 07/07 A3067 RMK AO2
    KCPW 211855Z AUTO 22014G21KT M1/4SM SN OVC001 08/08 A3067 RMK AO2
  • KMWN: Mount Washington, NH, United States [1/16mile]
    KMWN 211749Z 30010KT 1/16SM FG VV002 12/12 RMK SHRAE30 60002 10128 20113
    KMWN 211849Z 30010KT 1/16SM FG VV000 12/12 RMK
    KMWN 211956Z 33008KT 1/16SM -SHRA PRFG SCT/// BKN000 OVC005 10/10 RMK VIS NW-NE 40 SHRAB40 PRFG BKN000 TPS LWR SCT040 HZ DSNT NW-NW T01000099
  • KMYP: Salida Mountain, Monarch Pass, CO, United States [<1/4mile]
    KMYP 211815Z AUTO 31032G44KT M1/4SM -RA OVC003 06/06 A3069 RMK AO2
    KMYP 211835Z AUTO 30021KT M1/4SM -RA OVC001 06/06 A3073 RMK AO2
    KMYP 212135Z AUTO 26016G23KT M1/4SM -DZ OVC001 08/07 A3069 RMK AO2 VIS M1/4V2 1/2
  • KQDG: ADANA/INCIRLIK, Turkey [200meters]
    KQDG 211955Z AUTO 00000KT 0200 FG VV002 16/16 A2967 RMK AO2 SLP049 T01620160 RVRNO PWINO $
    KQDG 212055Z AUTO 00000KT 0200 FG VV002 17/17 A2967 RMK AO2 SLP049 T01690167 51012 RVRNO PWINO $
  • KTKC: Tracy, MN, United States [<1/4mile]
    KTKC 211755Z AUTO 06006KT M1/4SM -RA FG OVC002 19/19 A3012 RMK AO2
  • KY51: Viroqua, WI, United States [<1/4mile]
    KY51 212055Z AUTO 14009G34KT M1/4SM BKN004 OVC013 23/20 A3008 RMK AO2 T02310198
  • PACZ: Cape Romanzof, Cape Romanzof LRRS Airport, AK, United States [<1/4mile]
    PACZ 211913Z AUTO 04015KT M1/4SM -SHRA FG VV002 08/08 A3002
    PACZ 211913Z AUTO 04015KT M1/4SM -SHRA FG VV002 08/08 A3002 RMK AO2 SLP167
    PACZ 211955Z AUTO 03016KT M1/4SM -RA FG VV002 08/08 A3003
    PACZ 211955Z AUTO 03016KT M1/4SM -RA FG VV002 08/08 A3003 RMK AO2 SHRAB1814E1916DZB1916E1947 SLP170 P0000 T00820081
    PACZ 212013Z AUTO 04015KT M1/4SM -RA FG VV001 08/07 A3003
    PACZ 212013Z AUTO 04015KT M1/4SM -RA FG VV001 08/07 A3003 RMK AO2 SLP171
    PACZ 212028Z AUTO 04014KT M1/4SM -RA FG VV002 08/08 A3003
    PACZ 212028Z AUTO 04014KT M1/4SM -RA FG VV002 08/08 A3003 RMK AO2 SLP172
    PACZ 212055Z AUTO 03015KT M1/4SM -RA FG VV002 08/08 A3003
    PACZ 212055Z AUTO 03015KT M1/4SM -RA FG VV002 08/08 A3003 RMK AO2 RAB1947 SLP172 P0000 60000 T00830082 52008
  • PAEH: Cape Newenham, Cape Newenham LRRS Airport, AK, United States [<1/4mile]
    PAEH 211810Z AUTO VRB05KT M1/4SM BCFG VV002 09/08 A3000
    PAEH 211810Z AUTO VRB05KT M1/4SM BCFG VV002 09/08 A3000 RMK AO2 SLP162
    PAEH 211855Z AUTO 00000KT M1/4SM FG VV002 09/08 A3000
    PAEH 211855Z AUTO 00000KT M1/4SM FG VV002 09/08 A3000 RMK AO2 SLP162 T00860084
    PAEH 211955Z AUTO 00000KT M1/4SM FG VV002 08/08 A3001
    PAEH 211955Z AUTO 00000KT M1/4SM FG VV002 08/08 A3001 RMK AO2 SLP166 T00820083
    PAEH 212055Z AUTO 00000KT M1/4SM FG VV002 08/08 A3002
    PAEH 212055Z AUTO 00000KT M1/4SM FG VV002 08/08 A3002 RMK AO2 SLP169 T00840083 52008
  • PASY: Shemya, Eareckson As, AK, United States [1/8mile]
    PASY 211959Z 09005KT 1/8SM VV001 06/06 A3004
    PASY 211959Z 09005KT 1/8SM VV001 06/06 A3004 RMK AO2A SLP176 T00600059 PNO FZRANO $
    PASY 211959Z COR 09005KT 1/8SM FG VV001 06/06 A3004
    PASY 211959Z COR 09005KT 1/8SM FG VV001 06/06 A3004 RMK AO2A SLP176 T00600059 PNO FZRANO $ COR 2113
  • RJEC: Asahikawa Airport, Japan [100meters]
    RJEC 211800Z AUTO 33006KT 0100 R34/0400N FG OVC000 14/13 Q1005
    RJEC 211900Z AUTO 34003KT 0100 R34/0275N FG OVC000 13/13 Q1005
    RJEC 212000Z AUTO 26003KT 0100 R34/0250N FG OVC000 13/13 Q1005
  • RJSM: Misawa Ab, Japan [100meters]
    RJSM 212000Z VRB02KT 0100 R10/0250V0450D FG VV000 16/16 Q1006
  • RKPM: Mosulpo Ab, Korea, South [100meters]
    RKPM 212048Z 19004KT 0100 -RA FG VV001 23/22 A2961 RMK CIG001
  • SCRD: Rodelillo, Valaparaiso, Chile [200meters]
    SCRD 212000Z 35014KT 0200 RA VV000 10/10 Q1014
  • USDA: Sabetta, Russia [150meters]
    USDA 211757Z AUTO 31003MPS 0150 0100NE R22/M0200N // VV002 01/01 Q1003 RMK QFE751/1002
    USDA 211800Z AUTO 30003MPS 0150 R22/M0200N // VV002 01/01 Q1003 RMK QFE751/1002
  • YSDU: Dubbo, Australia [150meters]
    YSDU 211816Z AUTO 13004KT 0150 FG BKN001 01/01 Q1024 RF00.0/000.2
    YSDU 211816Z AUTO 13004KT 0150 FG BKN001 01/01 Q1024 RF00/0/000/2
    YSDU 211830Z AUTO 00000KT 0200 FG OVC001 00/00 Q1024 RF00.0/000.2
    YSDU 211830Z AUTO 00000KT 0200 FG OVC001 00/00 Q1024 RF00/0/000/2
    YSDU 211927Z AUTO 02004KT 0200 FG BKN001 00/M00 Q1025 RF00.0/000.2
    YSDU 211927Z AUTO 02004KT 0200 FG BKN001 00/M00 Q1025 RF00/0/000/2
    YSDU 211930Z AUTO 03004KT 0150 FG OVC001 00/M00 Q1025 RF00.0/000.2
    YSDU 211930Z AUTO 03004KT 0150 FG OVC001 00/M00 Q1025 RF00/0/000/2
0 stations reporting visibility 75 miles or greater

3 stations reporting visibility 50-74 miles

  • CYQL: Lethbridge, Alta., Canada [60miles]
    CYQL 211800Z 12009KT 080V160 60SM BKN037 BKN080 20/12 A3006 RMK CU6AC1 AC TR SLP183 DENSITY ALT 4200FT
    CYQL 211900Z 09012KT 60SM SCT045 BKN090 21/12 A3004 RMK CU4AC1 SLP175 DENSITY ALT 4400FT
    CYQL 212000Z 14009KT 100V160 60SM BKN049 BKN070 22/11 A3002 RMK CU6AC1 SLP168 DENSITY ALT 4400FT
    CYQL 212100Z 12010G22KT 60SM SCT050 BKN090 BKN250 21/10 A3001 RMK CU4AC2CI1 SLP164 DENSITY ALT 4400FT
    CYQL 212111Z 14011G18KT 60SM -SHRA SCT055TCU BKN090 BKN250 20/13 A3001 RMK TCU4AC1CI1 SLP164 DENSITY ALT 4300FT
    CYQL 212111Z CCA 14011G18KT 60SM -SHRA SCT050TCU BKN090 BKN250 20/13 A3001 RMK TCU4AC1CI1 SLP164 DENSITY ALT 4300FT
  • CYXJ: Fort St John, B. C., Canada [60miles]
    CYXJ 211800Z 24005KT 160V260 60SM FEW048TCU 20/08 A2997 RMK TCU1 TCU TR HZ SLP157 DENSITY ALT 3400FT
    CYXJ 212000Z 19006G16KT 170V280 60SM FEW068TCU 24/05 A2994 RMK TCU1 TCU TR SLP143 DENSITY ALT 3900FT
  • KEDW: Edwards AFB, CA, United States [50miles]
    KEDW 211755Z 00000KT 50SM CLR 30/02 A2980 RMK AO2A SLP067 T03000023 10300 20162 51002
    KEDW 211855Z 03004KT 50SM CLR 31/01 A2979 RMK AO2A SLP063 T03110014
    KEDW 211955Z 10003KT 50SM CLR 33/M01 A2979 RMK AO2A SLP062 T03301014
    KEDW 212055Z 08003KT 50SM CLR 34/M06 A2977 RMK AO2A SLP055 T03441064 57011


0 stations reporting aurora

0 stations reporting solar/lunar eclipse


0 stations reporting inside a hurricane eye

0 stations reporting aircraft mishap

15 stations reporting bird hazard on the runway

  • SPCL: Pucallpa, Peru
    SPCL 211800Z 36002KT 9999 SCT020 SCT080 30/22 Q1014 RMK BIRD HAZARD RWY 02/20 PP000
    SPCL 211900Z 02002KT 9999 SCT020 SCT080 31/23 Q1013 RMK BIRD HAZARD RWY 02/20 PP000
    SPCL 212000Z 02006KT 9999 SCT020 SCT080 31/24 Q1011 RMK BIRD HAZARD RWY 02/20 PP000
    SPCL 212100Z 04006KT 9999 BKN020 SCT080 30/23 Q1011 RMK BIRD HAZARD RWY 02/20 PP000
  • SPHI: Chiclayo, Peru
    SPHI 211800Z 18008KT CAVOK 23/16 Q1013 RMK BIRD HAZARD RWY 19/01 PP000
    SPHI 211900Z 18014KT CAVOK 22/16 Q1012 RMK BIRD HAZARD RWY 19/01 PP000
    SPHI 212000Z 18018KT CAVOK 21/16 Q1012 RMK BIRD HAZARD RWY 19/01 PP000
    SPHI 212100Z 18021KT 9999 SCT010 20/16 Q1011 RMK BIRD HAZARD RWY 19/01 PP000
  • SPHO: Ayacucho, Peru
    SPHO 211800Z VRB03KT 9999 FEW015 FEW040TCU BKN090 17/06 Q1030 RMK BIRD HAZARD RWY 02/20 PP000
    SPHO 211900Z 01004KT 300V080 9999 FEW020 FEW050TCU BKN090 19/05 Q1029 RMK BIRD HAZARD RWY 02/20 PP000
    SPHO 212000Z VRB02KT 9999 FEW020 BKN090 19/05 Q1028 RMK BIRD HAZARD RWY 02/20 PP000
    SPHO 212100Z VRB02KT 9999 FEW050 BKN090 19/05 Q1027 RMK BIRD HAZARD RWY 02/20 PP000
    SPHO 212100Z VRB02KT 9999 FEW050 BKN090 19/05 Q1027 RMK TX19.7 BIRD HAZARD RWY 02/20 PP000
  • SPHY: Andahuayla, Peru
    SPHY 211800Z 03003KT 9999 SCT012 BKN060 14/10 Q1036 RMK BIRD HAZARD RWY03/21 PP000
    SPHY 211900Z 04003KT 9999 SCT012 BKN060 14/11 Q1035 RMK BIRD HAZARD RWY03/21 PP000
  • SPJC: Lima/J Chavez, Peru
    SPJC 211800Z 18006KT 160V220 8000 SCT010 BKN014 18/14 Q1015 NOSIG RMK BIRD HAZARD RWY 16 PP000
    SPJC 211900Z 19007KT 8000 SCT010 BKN014 18/14 Q1014 NOSIG RMK BIRD HAZARD RWY 16 PP000
    SPJC 212000Z 19009KT 7000 OVC010 17/14 Q1014 NOSIG RMK BIRD HAZARD RWY 16 PP000
  • SPJE: Shumba, Peru
    SPJE 211800Z 13007KT 6000 -RA BKN020 OVC070 22/21 Q1018 RMK BIRD HAZARD RWY 16/34 PP005
    SPJE 211900Z 12007KT 7000 SCT020 BKN070 23/21 Q1017 RMK BIRD HAZARD RWY 16/34 PP000
    SPJE 212000Z 13009KT 7000 SCT020 BKN080 23/21 Q1016 RMK BIRD HAZARD RWY 16/34 PP000
    SPJE 212100Z 14006KT 4000 -RA BR BKN020 BKN080 22/21 Q1016 RMK BIRD HAZARD RWY 16/34 TX23.8 PP016
  • SPJL: Juliaca, Peru
    SPJL 211800Z 31005KT 9999 SCT020 BKN100 12/M04 Q1037 RMK BIRD HAZARD RWY 12/30 PP000
    SPJL 211900Z 35004KT 9999 SCT020 SCT100 13/M03 Q1036 RMK BIRD HAZARD RWY 12/30 PP000
    SPJL 212000Z 29006KT 230V340 9999 VCSH SCT020 SCT100 13/M03 Q1035 RMK SH NW BIRD HAZARD RWY 12/30 PP000
    SPJL 212100Z VRB07KT 9999 VCSH SCT020 BKN100 12/M03 Q1035 RMK SH NW BIRD HAZARD RWY 12/30 PP000
  • SPME: Tumbes, Peru
    SPME 211800Z 33004KT 9999 OVC010 25/21 Q1011 RMK BIRD HAZARD RWY 32/14 PP000
    SPME 211900Z 36007KT 9999 OVC010 25/21 Q1011 RMK BIRD HAZARD RWY 32/14 PP000
    SPME 212000Z 33006KT 9999 OVC010 24/21 Q1010 RMK BIRD HAZARD RWY 32/14 PP000
    SPME 212100Z 33007KT 9999 BKN012 24/21 Q1010 RMK BIRD HAZARD RWY 32/14 PP000
  • SPMS: Yurimaguas, Peru
    SPMS 211800Z 33005KT 9999 SCT015 OVC070 27/24 Q1014 RMK BIRD HAZARD RWY09/27 PP000
    SPMS 211900Z 04003KT 9999 FEW015 SCT070 28/24 Q1013 RMK BIRD HAZARD RWY09/27 PP000
    SPMS 212000Z 08003KT 9999 FEW015 SCT070 29/24 Q1011 RMK BIRD HAZARD RWY09/27 PP000
    SPMS 212100Z 35003KT 9999 FEW015 SCT070 29/25 Q1011 RMK BIRD HAZARD RWY09/27 PP000
  • SPQT: Iquitos, Peru
    SPQT 211800Z 24005KT 210V280 9999 VCSH SCT017 FEW020TCU 28/26 Q1013 NOSIG RMK BIRD HAZARD RWY 06/24 PP000
  • SPSO: Pisco, Peru
    SPSO 211800Z 29008KT 260V320 5000 BR FU SCT015 19/16 Q1015 RMK BIRD HAZARD RWY 22/04 PP000
    SPSO 211900Z 30006KT 8000 NSC 19/15 Q1014 RMK BIRD HAZARD RWY 22/04 PP000
    SPSO 212000Z 30004KT 270V330 CAVOK 21/15 Q1013 RMK BIRD HAZARD RWY 22/04 PP000
    SPSO 212100Z 33004KT 270V010 CAVOK 20/15 Q1013 RMK BIRD HAZARD RWY 22/04 PP000
  • SPTU: Puerto Maldonado, Peru
    SPTU 211800Z 27005KT 230V350 9999 SCT012 32/24 Q1010 RMK BIRD HAZARD RWY 01/19 PP000
    SPTU 211900Z 24005KT 210V300 9999 FEW012TCU SCT013 30/25 Q1009 RMK BIRD HAZARD RWY 01/19 PP000
    SPTU 212000Z 29004KT 240V340 9999 FEW014TCU SCT015 32/25 Q1008 RMK BIRD HAZARD RWY 01/19 PP000
    SPTU 212100Z 29004KT 260V330 9999 FEW014TCU 31/24 Q1008 RMK BIRD HAZARD RWY 01/19 PP000
  • SPUR: Piura, Peru
    SPUR 211800Z 20007KT CAVOK 24/16 Q1013 RMK BIRD HAZARD RWY 19/01 PP000
    SPUR 211900Z 20008KT CAVOK 25/16 Q1011 RMK BIRD HAZARD RWY 19/01 PP000
    SPUR 212000Z 19009KT CAVOK 26/17 Q1011 RMK BIRD HAZARD RWY 19/01 PP000
    SPUR 212100Z 20012KT CAVOK 26/17 Q1010 RMK BIRD HAZARD RWY 19/01 PP000
  • SPYL: Talara, Peru
    SPYL 211800Z /////KT 9999 SCT050 25/18 Q1012 RMK BIRD HAZARD RWY 17/35 PP000
    SPYL 211900Z /////KT 9999 SCT050 26/18 Q1011 RMK BIRD HAZARD RWY 17/35 PP000
    SPYL 212000Z /////KT 9999 SCT050 25/18 Q1010 RMK BIRD HAZARD RWY 17/35 PP000
    SPYL 212100Z /////KT CAVOK 23/18 Q1010 RMK BIRD HAZARD RWY 17/35 PP000
  • SPZO: Cuzco, Peru
    SPZO 211800Z VRB03KT 9999 SCT040 OVC080 13/04 Q1034 NOSIG RMK BIRD HAZARD RWY 10/28 PP000
    SPZO 211830Z 27003KT 230V330 9999 SCT040 OVC080 13/04 Q1034 NOSIG RMK BIRD HAZARD RWY 10/28
    SPZO 211900Z 15004KT 080V230 9999 SCT040 OVC080 13/04 Q1033 NOSIG RMK BIRD HAZARD RWY 10/28 PP000
    SPZO 211930Z 10006KT 9999 SCT040 OVC080 13/05 Q1033 NOSIG RMK BIRD HAZARD RWY 10/28
    SPZO 212000Z 03003KT 360V090 9999 SCT040 OVC080 13/04 Q1033 NOSIG RMK BIRD HAZARD RWY 10/28 PP000
    SPZO 212030Z 32005KT 290V360 9999 SCT040 OVC080 13/03 Q1033 NOSIG RMK BIRD HAZARD RWY 10/28
    SPZO 212100Z 29013KT 9999 SCT046 OVC080 13/03 Q1033 NOSIG RMK BIRD HAZARD RWY 10/28 PP000
    SPZO 212130Z 31009KT 9999 SCT046 BKN080 13/03 Q1033 NOSIG RMK BIRD HAZARD RWY 10/28
0 stations reporting volcanic ash

1 station reporting ice crystals/diamond dust

  • NZSP: Amundsen-Scott Stn, Antarctica
    NZSP 211750Z 36013KT 4800 IC BLSN BKN010 M47/ A2802 RMK CLN AIR 36013KT ALL WNDS GRID
0 stations reporting blowing spray

6 stations reporting dust or duststorm

  • DAOR: Bechar, Algeria
    DAOR 211800Z 34015KT 4000 DU NSC 37/// Q1015
    DAOR 212100Z 05009KT 4000 DU NSC 33/M02 Q1017
  • DRZR: Zinder, Niger
    DRZR 211800Z 23008KT 4000 DU NSC 34/20 Q1011
    DRZR 211900Z 23008KT 4000 DU NSC 32/20 Q1012
  • GQNO: Nouakchott-Oumtounsy Airport, Mauritania
    GQNO 211800Z 32018KT 4800 DU NSC 28/18 Q1008 NOSIG
  • KCHD: Chandler, Chandler Municipal Airport, AZ, United States
    KCHD 211747Z 10017G23KT 7SM DU CLR 39/18 A2971
  • SAME: Mendoza Aerodrome, Argentina
    SAME 212048Z 23006G16KT 5000 DU SCT040 15/07 Q1003
    SAME 212100Z 14004G14KT 5000 DU SCT040 16/04 Q1004
  • ZBHH: Hohhot, China
    ZBHH 211800Z 32004MPS 290V350 2500 DU NSC 17/M01 Q1007 NOSIG
    ZBHH 211900Z 29005MPS 250V320 2500 DU NSC 17/M02 Q1007
    ZBHH 212000Z 30006MPS 3200 DU NSC 15/M02 Q1007 NOSIG
    ZBHH 212100Z 28005MPS 5000 DU NSC 14/M02 Q1007 NOSIG
4 stations reporting sand or sandstorm

  • DAAJ: Djanet, Algeria
    DAAJ 211800Z 26005KT 4000 SA NSC 39/// Q1013
    DAAJ 211900Z 23005KT 4000 SA NSC 38/// Q1013
    DAAJ 212000Z 00000KT 4000 SA NSC 35/// Q1014
    DAAJ 212100Z 05006KT 4000 SA NSC 34/// Q1014
  • DAAT: Tamanrasset / Aguenna, Algeria
    DAAT 211800Z 31005KT 2000 SA NSC 36/01 Q1018
    DAAT 211830Z 29006KT 2000 SA NSC 36/02 Q1018
    DAAT 211900Z 27006KT 2000 SA FEW046 SCT100 35/03 Q1019
    DAAT 211930Z 31005KT 2000 SA FEW046 SCT100 35/02 Q1019
    DAAT 212000Z 30007KT 260V330 2000 SA FEW046 SCT100 35/01 Q1019
    DAAT 212030Z 29006KT 2000 SA FEW046 SCT100 35/01 Q1020
    DAAT 212100Z 28004KT 260V360 2000 SA FEW046 SCT100 34/02 Q1020
    DAAT 212130Z 28004KT 2000 SA FEW046 SCT100 33/01 Q1020
  • DAOY: El Bayadh, Algeria
    DAOY 212000Z 36014KT 3000 BLSA NSC 24/00 Q1022
  • OICI: Ilam, Iran
    OICI 212100Z 12002KT 5000 SA NSC 26/01 Q1012 A2990
0 stations reporting well-developed dust/sand whirls

20 stations reporting smoke

  • CYCQ: Chetwynd Airport, Canada
    CYCQ 212000Z VRB03KT 35SM FEW050TCU FEW055 27/06 A2989 RMK TCU1CU1 CU TR VIRGA S+SW+NW FU DIST VLY W SLP127 DENSITY ALT 3900FT
    CYCQ 212100Z 05004KT 310V110 35SM SCT045TCU SCT050 BKN220 27/05 A2986 RMK TCU4CU1CI1 CU TR VIRGA N+S+W-NW FU DIST VLY W SLP119 DENSITY ALT 3900FT
  • CYDA: Dawson, Y. T., Canada
    CYDA 211800Z 04005KT 340V070 20SM BKN140 17/10 A2983 RMK AC5 FU SLP110 DENSITY ALT 1800FT
    CYDA 211900Z 04008KT 330V110 20SM FEW060TCU FEW100 20/09 A2980 RMK TCU1AC1 FU SLP100 DENSITY ALT 2300FT
    CYDA 212000Z 07005KT 20SM FEW070 SCT120 22/06 A2979 RMK CU2AC1 FU SLP095 DENSITY ALT 2500FT
    CYDA 212100Z VRB02KT 20SM FEW090 SCT130 22/06 A2976 RMK CU2AC2 FU TCU EMBD SLP088 DENSITY ALT 2500FT
  • CYZV: Sept-Iles, Que., Canada
    CYZV 212100Z 32011G22KT 30SM FEW010 FEW060TCU SCT090 24/04 A3001 RMK FU1TCU1AC2 TCU TR TCU DIST W SLP165 DENSITY ALT 1200FT
  • CZFA: Faro Airport, Canada
    CZFA 211800Z 27006KT 250V340 30SM FEW085 BKN110 BKN130 18/05 A2982 RMK CU1AC5AC1 FU SLP107 DENSITY ALT 3400FT
    CZFA 211900Z 26007KT 240V300 30SM SCT085 BKN110 BKN220 19/03 A2981 RMK CU3AC3CC1 CC TR FU SLP101 DENSITY ALT 3500FT
    CZFA 212100Z VRB03KT 30SM FEW090 BKN100 20/03 A2978 RMK CU2AC5 FU SLP092 DENSITY ALT 3700FT
  • KPAO: Palo Alto Airport, CA, United States
    KPAO 211947Z 36006KT 8SM SKC 20/13 A2983 FU
    KPAO 212047Z 34014KT 8SM SKC 21/13 A2981 FU
  • KSTS: Santa Rosa, CA, United States
    KSTS 211753Z 23005KT 10SM FU CLR 19/12 A2982 RMK AO2 SLP093 T01890117 10189 20106 58001
    KSTS 211853Z VRB03KT 10SM FU CLR 22/12 A2981 RMK AO2 SLP088 T02220122
    KSTS 211953Z 00000KT 10SM FU CLR 25/13 A2980 RMK AO2 SLP086 T02500133
    KSTS 212053Z 18010KT 10SM FU CLR 27/14 A2979 RMK AO2 SLP081 T02670144 56010
  • MMAA: Acapulco / G. Alvarez, Mexico
    MMAA 212049Z 14009KT 6SM SCT015TCU BKN090 OVC300 29/25 A2968 RMK SLP046 57009 914 8/262 HZY CB E FU SE
  • MMML: Mexicali Intl Arpt, Mexico
    MMML 211843Z 32003KT 10SM SKC 38/00 A2964 RMK CS FU E
    MMML 211940Z 00000KT 10SM SKC 40/01 A2962 RMK FULYR E
    MMML 212048Z 17004KT 10SM SKC 41/01 A2960 RMK SLP027 57013 957 FU E
  • OPFA: Faisalabad, Pakistan
    OPFA 211755Z 31004KT 4000 FU FEW100 29/23 Q1001 NOSIG
    OPFA 211855Z 23002KT 4000 FU FEW100 29/23 Q1000 NOSIG
    OPFA 211955Z 27002KT 4000 FU FEW100 29/23 Q1000 NOSIG
    OPFA 212055Z 00000KT 4000 FU FEW100 28/22 Q0999 NOSIG
  • OPLA: Lahore Airport, Pakistan
    OPLA 211755Z 27010KT 5000 FU SCT100 30/21 Q1000 NOSIG RMK QFE975 A29.55
    OPLA 211825Z 24006KT 5000 FU SCT100 29/21 Q1000 NOSIG RMK QFE975 A29.55
    OPLA 211855Z 27006KT 5000 FU SCT100 29/22 Q1000 NOSIG RMK QFE975 A29.54
    OPLA 211925Z 27008KT 5000 FU SCT100 29/22 Q1000 NOSIG RMK QFE974 A29.54
    OPLA 211955Z 27008KT 5000 FU SCT100 29/22 Q0999 NOSIG RMK QFE974 A29.53
    OPLA 212025Z 27006KT 5000 FU SCT100 29/22 Q0999 NOSIG RMK QFE974 A29.52
    OPLA 212055Z 27006KT 5000 FU SCT100 28/22 Q0999 NOSIG RMK QFE973 A29.51
    OPLA 212125Z 26004KT 5000 FU SCT100 28/22 Q0999 NOSIG RMK QFE973 A29.50
  • OPMT: Multan, Pakistan
    OPMT 211800Z 00000KT 4000 FU SCT100 29/24 Q1000 NOSIG
    OPMT 211830Z 00000KT 4000 FU SCT100 29/24 Q0999 NOSIG
    OPMT 211900Z 00000KT 4000 FU SCT100 29/24 Q0999 NOSIG
    OPMT 211930Z 00000KT 4000 FU SCT100 29/24 Q0999 NOSIG
    OPMT 212000Z 00000KT 4000 FU SCT100 28/24 Q0999 NOSIG
    OPMT 212030Z 00000KT 4000 FU SCT100 28/24 Q0999 NOSIG
    OPMT 212100Z 00000KT 4000 FU SCT100 28/24 Q0998 NOSIG
    OPMT 212130Z 00000KT 4000 FU SCT100 28/24 Q0998 NOSIG
  • OPST: Sambrial, Pakistan
    OPST 211900Z 00000KT 4000 FU FEW040 SCT100 30/19 Q1000 NOSIG RH50
    OPST 212000Z 00000KT 4000 FU FEW040 SCT100 30/19 Q1000 NOSIG RH50
    OPST 212100Z 00000KT 4000 FU FEW040 SCT100 29/21 Q0999 NOSIG RH61
  • ORNI: Al-ashraf, Iraq
    ORNI 211800Z 00000KT 4000 FU NSC 38/11 Q0998
    ORNI 211900Z 00000KT 4000 FU NSC 38/13 Q0998
    ORNI 212000Z 00000KT 4000 FU NSC 36/05 Q0997
    ORNI 212100Z 00000KT 5000 FU NSC 37/07 Q0997
  • PABI: Delta Junction/Ft Greely, AK, United States
    PABI 211753Z 29003KT 10SM FEW070 BKN100 OVC140 14/09 A2989 RMK AO2 SLP122 LGT FU ALQDS T01440094 10144 20111 50000 $
    PABI 211853Z VRB03KT 10SM FEW070 SCT100 BKN140 BKN200 16/09 A2989 RMK AO2 SLP120 LGT FU ALQDS T01610094 $
    PABI 211953Z VRB03KT 10SM BKN070CB BKN100 BKN140 BKN200 18/08 A2988 RMK AO2 SLP117 SHRA DSNT NE LGT FU ALQDS CB DSNT NE MOV SW T01830083 $
    PABI 212053Z 35003KT 10SM SCT060CB BKN100 BKN140 BKN200 19/09 A2987 RMK AO2 SLP115 SHRA DSNT NE LGT FU ALQDS CB DSNT NW-NE MOV SW T01890089 58006 $
  • PAEI: Fairbanks, Eielson AFB, AK, United States
    PAEI 211755Z 23003KT 1 1/2SM FU SCT130 17/10 A2982
    PAEI 211755Z 23003KT 1 1/2SM FU SCT130 17/10 A2982 RMK AO2A SLP101 T01710102 10172 20067 58003 $
    PAEI 211855Z 00000KT 2SM FU SCT100 19/10 A2982
    PAEI 211855Z 00000KT 2SM FU SCT100 19/10 A2982 RMK AO2A SLP101 T01910104 $
    PAEI 211935Z 00000KT 3SM FU FEW220 20/10 A2981
    PAEI 211935Z 00000KT 3SM FU FEW220 20/10 A2981 RMK AO2A VIS S 2 AO2A SLP097 $
    PAEI 211955Z 00000KT 5SM FU SCT220 21/10 A2981
    PAEI 211955Z 00000KT 5SM FU SCT220 21/10 A2981 RMK AO2A VIS SE-SW 2 AO2A SLP097 T02070102 $
    PAEI 212056Z 15004KT 7SM FU VCTS SCT060CB SCT120 BKN200 22/11 A2979
    PAEI 212056Z 15004KT 7SM FU VCTS SCT060CB SCT120 BKN200 22/11 A2979 RMK AO2A LTG DSNT NW-N AND E-SE CB DSNT W-SE SLP091 T02170111 58011
    PAEI 212137Z 01004KT 7SM TS FU SCT060CB SCT100 BKN200 23/11 A2978 RMK AO2A SLP087
  • PAFA: Fairbanks, Fairbanks Intl Arpt, AK, United States
    PAFA 211753Z 18003KT 4SM HZ FEW120 SCT200 19/10 A2985 RMK AO2 SLP112 FU DSNT SE-S T01890100 10189 20128 58003 $
    PAFA 211753Z COR 18003KT 10SM FEW120 SCT200 19/10 A2985 RMK AO2 SLP112 FU DSNT SE-S T01890100 10189 20128 58003 $
    PAFA 211853Z 00000KT 10SM FEW055 FEW120 BKN200 22/09 A2984 RMK AO2 SLP107 FU VC SE-S T02170094 $
    PAFA 211953Z 23004KT 10SM FEW060CB SCT120 BKN200 22/10 A2983 RMK AO2 SLP105 FU VC SE-S CB N MOV SW T02220100 $
    PAFA 212053Z 00000KT 10SM FEW065CB SCT120 BKN200 24/09 A2982 RMK AO2 SLP100 FU VC SE-S CB OHD NW N MOV SW T02440089 57010 $
    PAFA 212118Z 32012KT 10SM -RA BKN065CB BKN120 BKN200 21/09 A2983 RMK AO2 WSHFT 2058 RAB17 FU VC SE-S CB OHD W N MOV SW P0000 T02060094 $
  • PHNG: Kaneohe, Marine Corps Air Stn, HI, United States
    PHNG 211957Z 07011G21KT 7SM FU BKN026 BKN047 30/23 A3008 RMK AO2 RAE01 SLP179 P0000 T03000228
  • SBCR: Corumba, Brazil
    SBCR 211900Z 02012KT 5000 FU NSC 35/13 Q1007
    SBCR 212000Z 03010KT 5000 FU NSC 33/13 Q1007
    SBCR 212100Z 03010KT 5000 2400SE FU NSC 32/14 Q1007
  • SPSO: Pisco, Peru
    SPSO 211800Z 29008KT 260V320 5000 BR FU SCT015 19/16 Q1015 RMK BIRD HAZARD RWY 22/04 PP000
  • UTSA: Navoi, Uzbekistan
    UTSA 211800Z 12006KT 1600 R25/1600N FU NSC 27/05 Q1003 R25/CLRD70 NOSIG
    UTSA 211830Z 14006KT 3900 FU NSC 27/04 Q1003 R25/CLRD70 NOSIG


Stations falling into 5 or more extreme categories

Stations falling into 4 extreme categories

  • KCPW: Pagosa Springs, Wolf Creek Pass, CO, United States
        Precipitation Type/Intensity, Thundersnow, Thunderstorm, Visibility
  • KLBF: North Platte, NE, United States
        Wind, Precipitation Type/Intensity, Hourly Precip Total, Thunderstorm
Stations falling into 3 extreme categories

  • K4B8: UNKNOWN,
        Precipitation Type/Intensity, Hourly Precip Total, Thunderstorm
  • KBAF: Westfield, Barnes Municipal Airport, MA, United States
        Wind, Hourly Precip Total, Thunderstorm
  • KLWD: Lamoni, Lamoni Municipal Airport, IA, United States
        Wind, Pressure Change, Precipitation Type/Intensity
  • KMHE: Mitchell, Mitchell Municipal Airport, SD, United States
        Precipitation Type/Intensity, Hourly Precip Total, Thunderstorm
  • KPUC: Price, Carbon County Airport, UT, United States
        Wind, Hourly Precip Total, Thunderstorm
  • KSGJ: St. Augustine, St. Augustine Airport, FL, United States
        Dewpoint, Precipitation Type/Intensity, Thunderstorm
  • LIVP: Paganella, Italy
        Hail, Thunderstorm, Visibility
  • MKJS: Montego Bay / Sangster, Jamaica
        Dewpoint, Wind, Thunderstorm
  • MMUN: Cancun Intl Arpt, Mexico
        Dewpoint, Precipitation Type/Intensity, 3/6-Hourly Precip Total
  • MUVR: Varadero, Matanzas, Cuba
        Dewpoint, Precipitation Type/Intensity, Thunderstorm
Stations falling into 2 extreme categories

  • CYQL: Lethbridge, Alta., Canada
        Thunderstorm, Visibility
  • KBDL: Windsor Locks, Bradley Intl Arpt, CT, United States
        Precipitation Type/Intensity, Thunderstorm
  • KBIS: Bismarck, Bismarck Municipal Airport, ND, United States
        Precipitation Type/Intensity, Thunderstorm
  • KBJC: Broomfield / Jeffco, CO, United States
        Thunderstorm, Visibility
  • KCHD: Chandler, Chandler Municipal Airport, AZ, United States
        Temperature, Dust/Duststorm
  • KCYS: Cheyenne, Cheyenne Airport, WY, United States
        Precipitation Type/Intensity, Thunderstorm
  • KDIK: Dickinson, Dickinson Municipal Airport, ND, United States
        Precipitation Type/Intensity, Thunderstorm
  • KELM: Elmira, Elmira / Corning Regional Airport, NY, United States
        Hourly Precip Total, Thunderstorm
  • KEST: Estherville, IA, United States
        Hourly Precip Total, Thunderstorm
  • KEVU: Maryville, MO, United States
        Dewpoint, Precipitation Type/Intensity
  • KFFZ: Mesa / Falcon Field, AZ, United States
        Temperature, Visibility
  • KFKA: Preston, Fillmore County Airport, MN, United States
        Dewpoint, Precipitation Type/Intensity
  • KGYR: Goodyear Municipal, AZ, United States
        Temperature, Visibility
  • KHFD: Hartford, Hartford-Brainard Airport, CT, United States
        Precipitation Type/Intensity, Thunderstorm
  • KHZE: Hazen, ND, United States
        Precipitation Type/Intensity, Thunderstorm
  • KLND: Lander, WY, United States
        Wind, Thunderstorm
  • KLNR: Lone Rock, Tri-County Regional Airport, WI, United States
        Precipitation Type/Intensity, Thunderstorm
  • KLVS: Las Vegas, Las Vegas Municipal Airport, NM, United States
        Precipitation Type/Intensity, Thunderstorm
  • KMCW: Mason City, Mason City Municipal Airport, IA, United States
        Precipitation Type/Intensity, Thunderstorm
  • KMYP: Salida Mountain, Monarch Pass, CO, United States
        Wind, Visibility
  • KNBC: Beaufort, Marine Corps Air Stn, SC, United States
        Dewpoint, Precipitation Type/Intensity
  • KOLE: Olean Municipal, NY, United States
        Precipitation Type/Intensity, Thunderstorm
  • KONA: Winona Municipal, MN, United States
        Precipitation Type/Intensity, Hourly Precip Total
  • KPOU: Poughkeepsie, Dutchess County Airport, NY, United States
        Precipitation Type/Intensity, Thunderstorm
  • KRIW: Riverton, Riverton Regional Airport, WY, United States
        Wind, Thunderstorm
  • KRKS: Rock Springs, WY, United States
        Precipitation Type/Intensity, Thunderstorm
  • KSLC: Salt Lake City, Salt Lake City Intl Arpt, UT, United States
        Hail, Thunderstorm
  • KSPW: Spencer, Spencer Municipal Airport, IA, United States
        Hourly Precip Total, Thunderstorm
  • KSTJ: St. Joseph, Rosecrans Memorial Airport, MO, United States
        Wind, Precipitation Type/Intensity
  • KTUS: Tucson, Tucson Intl Arpt, AZ, United States
        Temperature, Wind
  • KVCT: Victoria, Victoria Regional Airport, TX, United States
        Wind, Precipitation Type/Intensity
  • LOWI: Innsbruck-Flughafen, Austria
        Wind, Thunderstorm
  • MDCY: El Catey, Dominican Republic
        Dewpoint, Thunderstorm
  • MMML: Mexicali Intl Arpt, Mexico
        Temperature, Smoke
  • MMPA: Poza Rica / Palizada, Mexico
        Dewpoint, 3/6-Hourly Precip Total
  • MMSP: San Luis Potosi, S. L. P., Mexico
        Precipitation Type/Intensity, 3/6-Hourly Precip Total
  • MMVR: Veracruz / Las Bajadas / General Heriberto Jara, Mexico
        Dewpoint, 3/6-Hourly Precip Total
  • MUCL: Cayo Largo Del Sur, Cuba
        Dewpoint, Thunderstorm
  • NZSP: Amundsen-Scott Stn, Antarctica
        Temperature, Ice Crystals/Diamond Dust
  • OOKB: Khassab, Oman
        Temperature, Dewpoint
  • RORT: Tarama Island, Japan
        Dewpoint, Precipitation Type/Intensity
  • SKBQ: Barranquilla / Ernestocortissoz, Colombia
        Dewpoint, Thunderstorm
  • SPHY: Andahuayla, Peru
        Pressure, Bird Hazard
  • SPJL: Juliaca, Peru
        Pressure, Bird Hazard
  • SPQT: Iquitos, Peru
        Dewpoint, Bird Hazard
  • SPSO: Pisco, Peru
        Bird Hazard, Smoke
  • VRMM: Male, Maldives
        Dewpoint, Thunderstorm
  • VVPQ: Phu Quoc, Viet Nam
        Dewpoint, Thunderstorm


91 unidentified stations (out of a total of 165 documented unknown stations)

  • BK12 (NEW)
  • ENUN (OLD)
  • EQPH (OLD)
  • EQYE (OLD)
  • EQYF (OLD)
  • EQYT (OLD)
  • EQYV (OLD)
  • HESX (NEW)
  • HKGO (OLD)
  • HTIB (OLD)
  • K0D8 (NEW)
  • K0W3 (NEW)
  • K10U (NEW)
  • K1B9 (NEW)
  • K1D8 (NEW)
  • K1K8 (NEW)
  • K2M8 (NEW)
  • K2R2 (NEW)
  • K3K7 (NEW)
  • K3W7 (NEW)
  • K42A (NEW)
  • K49B (NEW)
  • K4B8 (NEW)
  • K60R (NEW)
  • K8V7 (NEW)
  • K9Y1 (NEW)
  • KACZ (NEW)
  • KANR (NEW)
  • KBFA (NEW)
  • KC08 (NEW)
  • KCPP (NEW)
  • KCSB (NEW)
  • KD09 (NEW)
  • KDRP (NEW)
  • KE01 (NEW)
  • KE57 (NEW)
  • KE77 (NEW)
  • KETO (NEW)
  • KF95 (NEW)
  • KFOM (NEW)
  • KGDK (NEW)
  • KHVC (NEW)
  • KI40 (NEW)
  • KI95 (NEW)
  • KK83 (NEW)
  • KMCZ (NEW)
  • KMKQ (NEW)
  • KN79 (NEW)
  • KOYE (NEW)
  • KQA8 (OLD)
  • KQAL (OLD)
  • KQB3 (OLD)
  • KQD3 (OLD)
  • KQEK (OLD)
  • KQFL (OLD)
  • KQGE (OLD)
  • KQHB (OLD)
  • KQHC (OLD)
  • KQOA (OLD)
  • KQRD (OLD)
  • KQX2 (OLD)
  • KQXH (OLD)
  • KS12 (NEW)
  • KSBX (NEW)
  • KTQV (OLD)
  • KU64 (NEW)
  • KUWL (NEW)
  • KVGN (NEW)
  • KXIF (OLD)
  • LETU (OLD)
  • LIRY (NEW)
  • LRBV (NEW)
  • LTFO (OLD)
  • MGMT (OLD)
  • MGTU (OLD)
  • MMGA (NEW)
  • NZQN (NEW)
  • OEAR (OLD)
  • OEMN (NEW)
  • OERS (NEW)
  • OKKK (NEW)
  • PACX (NEW)
  • PANU (NEW)
  • PAPE (NEW)
  • PFTO (NEW)
  • PFZK (NEW)
  • UBBZ (NEW)
  • VDSA (NEW)
  • VOGA (NEW)
  • WILL (NEW)
  • YBSU (NEW)